AFL294 UUEE-VVCR
Flight info
| Callsign | AFL294 |
|---|---|
| Flight time | 9h 23m |
| Altitude | 37000 |
| Route | TOGMO3J TOGMO M56 DENUD M161 MILSO M875 VADOD/K0898F390 M875 AMDAR/N0486F390 M875 TAPIS L509 LAJAK G796 HANGU L509 SULOM A466 ASARI L509 GGC R460 CEA L507 AVPOP/N0486F410 L507 BGO G473 UBL B202 BOMPA/K0898F410 B202 PLK G474 PCA/K0906F400 W2 KAMGO KAMGO1A |
| Aircraft | A359/H-SDE2E3GHIJ3J4J5LM1ORWXY/LB1D1 |
Departure
| Time | 2026-05-04 17:48 |
|---|---|
| Airport | Sheremetyevo International Airport (UUEE) |
Arrival
| Time | 2026-05-05 03:11 |
|---|---|
| Airport | Cam Ranh International Airport / Cam Ranh Air Base (VVCR) |
| Time | Latitude | Longitude | Altitude | Speed | Heading |
|---|---|---|---|---|---|
| 2026-05-04 17:26 | 55.97738 | 37.41299 | 645 ft | 0 kts | 301° |
| 2026-05-04 17:36 | 55.97730 | 37.41323 | 648 ft | 2 kts | 300° |
| 2026-05-04 17:37 | 55.97722 | 37.41349 | 650 ft | 2 kts | 300° |
| 2026-05-04 17:37 | 55.97713 | 37.41374 | 650 ft | 2 kts | 308° |
| 2026-05-04 17:37 | 55.97702 | 37.41395 | 646 ft | 2 kts | 323° |
| 2026-05-04 17:37 | 55.97687 | 37.41407 | 646 ft | 2 kts | 359° |
| 2026-05-04 17:38 | 55.97671 | 37.41401 | 647 ft | 2 kts | 26° |
| 2026-05-04 17:38 | 55.97658 | 37.41383 | 648 ft | 2 kts | 56° |
| 2026-05-04 17:38 | 55.97651 | 37.41357 | 649 ft | 2 kts | 73° |
| 2026-05-04 17:38 | 55.97648 | 37.41337 | 649 ft | 1 kts | 74° |
| 2026-05-04 17:42 | 55.97652 | 37.41362 | 648 ft | 5 kts | 73° |
| 2026-05-04 17:42 | 55.97668 | 37.41465 | 645 ft | 11 kts | 74° |
| 2026-05-04 17:42 | 55.97663 | 37.41582 | 645 ft | 7 kts | 128° |
| 2026-05-04 17:42 | 55.97622 | 37.41628 | 645 ft | 8 kts | 139° |
| 2026-05-04 17:43 | 55.97614 | 37.41708 | 645 ft | 9 kts | 82° |
| 2026-05-04 17:43 | 55.97635 | 37.41851 | 645 ft | 13 kts | 75° |
| 2026-05-04 17:43 | 55.97658 | 37.42010 | 645 ft | 14 kts | 75° |
| 2026-05-04 17:43 | 55.97682 | 37.42171 | 645 ft | 14 kts | 74° |
| 2026-05-04 17:44 | 55.97707 | 37.42341 | 645 ft | 15 kts | 75° |
| 2026-05-04 17:44 | 55.97734 | 37.42522 | 649 ft | 15 kts | 75° |
| 2026-05-04 17:44 | 55.97763 | 37.42712 | 648 ft | 16 kts | 75° |
| 2026-05-04 17:44 | 55.97794 | 37.42920 | 648 ft | 21 kts | 75° |
| 2026-05-04 17:45 | 55.97834 | 37.43183 | 645 ft | 22 kts | 75° |
| 2026-05-04 17:45 | 55.97874 | 37.43450 | 645 ft | 22 kts | 75° |
| 2026-05-04 17:45 | 55.97914 | 37.43714 | 645 ft | 22 kts | 75° |
| 2026-05-04 17:45 | 55.97945 | 37.43958 | 645 ft | 10 kts | 96° |
| 2026-05-04 17:46 | 55.97914 | 37.44027 | 645 ft | 7 kts | 147° |
| 2026-05-04 17:46 | 55.97862 | 37.44063 | 646 ft | 11 kts | 165° |
| 2026-05-04 17:46 | 55.97806 | 37.44059 | 646 ft | 6 kts | 207° |
| 2026-05-04 17:46 | 55.97788 | 37.44017 | 646 ft | 3 kts | 251° |
| 2026-05-04 17:47 | 55.97768 | 37.43928 | 647 ft | 12 kts | 254° |
| 2026-05-04 17:47 | 55.97739 | 37.43726 | 647 ft | 32 kts | 256° |
| 2026-05-04 17:47 | 55.97628 | 37.42987 | 647 ft | 90 kts | 255° |
| 2026-05-04 17:47 | 55.97422 | 37.41614 | 647 ft | 139 kts | 255° |
| 2026-05-04 17:48 | 55.97148 | 37.39759 | 890 ft | 158 kts | 258° |
| 2026-05-04 17:48 | 55.96931 | 37.37956 | 1557 ft | 147 kts | 257° |
| 2026-05-04 17:48 | 55.96659 | 37.36109 | 1797 ft | 163 kts | 250° |
| 2026-05-04 17:48 | 55.96324 | 37.34154 | 2187 ft | 163 kts | 251° |
| 2026-05-04 17:49 | 55.95990 | 37.32167 | 2470 ft | 174 kts | 251° |
| 2026-05-04 17:49 | 55.95635 | 37.30004 | 2652 ft | 190 kts | 252° |
| 2026-05-04 17:49 | 55.95256 | 37.27648 | 2850 ft | 203 kts | 253° |
| 2026-05-04 17:49 | 55.94868 | 37.25196 | 3233 ft | 208 kts | 253° |
| 2026-05-04 17:50 | 55.94475 | 37.22702 | 3698 ft | 209 kts | 253° |
| 2026-05-04 17:50 | 55.94079 | 37.20197 | 4128 ft | 211 kts | 254° |
| 2026-05-04 17:50 | 55.93676 | 37.17652 | 4481 ft | 220 kts | 254° |
| 2026-05-04 17:50 | 55.93245 | 37.14923 | 4646 ft | 238 kts | 254° |
| 2026-05-04 17:51 | 55.92788 | 37.12039 | 4949 ft | 250 kts | 255° |
| 2026-05-04 17:51 | 55.92310 | 37.09032 | 5450 ft | 253 kts | 255° |
| 2026-05-04 17:51 | 55.91835 | 37.05998 | 5998 ft | 256 kts | 256° |
| 2026-05-04 17:51 | 55.91647 | 37.02848 | 6529 ft | 258 kts | 275° |
| 2026-05-04 17:52 | 55.92204 | 36.99821 | 7061 ft | 262 kts | 300° |
| 2026-05-04 17:52 | 55.93468 | 36.97454 | 7603 ft | 268 kts | 320° |
| 2026-05-04 17:52 | 55.95008 | 36.95545 | 8175 ft | 271 kts | 323° |
| 2026-05-04 17:52 | 55.96557 | 36.93694 | 8735 ft | 273 kts | 323° |
| 2026-05-04 17:53 | 55.98281 | 36.92203 | 9292 ft | 281 kts | 341° |
| 2026-05-04 17:53 | 56.00249 | 36.91984 | 9849 ft | 291 kts | 6° |
| 2026-05-04 17:53 | 56.02182 | 36.93276 | 10202 ft | 308 kts | 27° |
| 2026-05-04 17:53 | 56.04024 | 36.95403 | 10434 ft | 323 kts | 31° |
| 2026-05-04 17:54 | 56.05923 | 36.97710 | 10660 ft | 336 kts | 31° |
| 2026-05-04 17:54 | 56.07903 | 37.00081 | 10889 ft | 349 kts | 31° |
| 2026-05-04 17:54 | 56.09936 | 37.02583 | 11101 ft | 362 kts | 35° |
| 2026-05-04 17:54 | 56.11697 | 37.05904 | 11279 ft | 378 kts | 55° |
| 2026-05-04 17:55 | 56.12766 | 37.10291 | 11502 ft | 391 kts | 73° |
| 2026-05-04 17:55 | 56.13440 | 37.14983 | 11845 ft | 396 kts | 76° |
| 2026-05-04 17:55 | 56.14088 | 37.19804 | 12284 ft | 399 kts | 75° |
| 2026-05-04 17:55 | 56.14706 | 37.24666 | 12711 ft | 402 kts | 79° |
| 2026-05-04 17:56 | 56.14817 | 37.29693 | 13130 ft | 405 kts | 97° |
| 2026-05-04 17:56 | 56.14066 | 37.34546 | 13563 ft | 406 kts | 116° |
| 2026-05-04 17:56 | 56.12501 | 37.38734 | 13941 ft | 406 kts | 135° |
| 2026-05-04 17:56 | 56.10286 | 37.41824 | 14316 ft | 403 kts | 154° |
| 2026-05-04 17:57 | 56.07671 | 37.43511 | 14706 ft | 400 kts | 172° |
| 2026-05-04 17:57 | 56.04953 | 37.44123 | 15076 ft | 401 kts | 174° |
| 2026-05-04 17:57 | 56.02247 | 37.45446 | 15444 ft | 407 kts | 160° |
| 2026-05-04 17:57 | 55.99651 | 37.47482 | 15834 ft | 410 kts | 157° |
| 2026-05-04 17:58 | 55.97153 | 37.49956 | 16190 ft | 415 kts | 147° |
| 2026-05-04 17:58 | 55.95036 | 37.53492 | 16547 ft | 421 kts | 129° |
| 2026-05-04 17:58 | 55.93568 | 37.58018 | 16916 ft | 426 kts | 112° |
| 2026-05-04 17:58 | 55.92791 | 37.63114 | 17282 ft | 429 kts | 101° |
| 2026-05-04 17:59 | 55.92235 | 37.68354 | 17634 ft | 431 kts | 101° |
| 2026-05-04 17:59 | 55.91546 | 37.73563 | 17962 ft | 434 kts | 109° |
| 2026-05-04 17:59 | 55.88899 | 37.83150 | 18598 ft | 437 kts | 120° |
| 2026-05-04 18:00 | 55.87410 | 37.87880 | 18906 ft | 438 kts | 120° |
| 2026-05-04 18:00 | 55.85915 | 37.92625 | 19210 ft | 440 kts | 120° |
| 2026-05-04 18:00 | 55.84415 | 37.97389 | 19519 ft | 442 kts | 120° |
| 2026-05-04 18:00 | 55.82908 | 38.02169 | 19811 ft | 444 kts | 121° |
| 2026-05-04 18:01 | 55.81156 | 38.06674 | 20076 ft | 444 kts | 134° |
| 2026-05-04 18:01 | 55.78794 | 38.10156 | 20371 ft | 440 kts | 152° |
| 2026-05-04 18:01 | 55.76024 | 38.12195 | 20656 ft | 436 kts | 169° |
| 2026-05-04 18:02 | 55.70129 | 38.11558 | 21227 ft | 427 kts | 204° |
| 2026-05-04 18:02 | 55.67584 | 38.08947 | 21526 ft | 423 kts | 221° |
| 2026-05-04 18:02 | 55.65614 | 38.05127 | 21801 ft | 420 kts | 238° |
| 2026-05-04 18:02 | 55.64340 | 38.00494 | 22084 ft | 419 kts | 253° |
| 2026-05-04 18:03 | 55.63849 | 37.95423 | 22358 ft | 420 kts | 269° |
| 2026-05-04 18:03 | 55.63983 | 37.92001 | 22532 ft | 422 kts | 279° |
| 2026-05-04 18:03 | 55.64742 | 37.85260 | 22902 ft | 424 kts | 276° |
| 2026-05-04 18:03 | 55.64979 | 37.80040 | 23187 ft | 425 kts | 270° |
| 2026-05-04 18:04 | 55.64773 | 37.74812 | 23452 ft | 427 kts | 260° |
| 2026-05-04 18:04 | 55.63949 | 37.69768 | 23687 ft | 429 kts | 247° |
| 2026-05-04 18:04 | 55.60307 | 37.61416 | 24110 ft | 438 kts | 219° |
| 2026-05-04 18:05 | 55.58598 | 37.59488 | 24257 ft | 442 kts | 209° |
| 2026-05-04 18:05 | 55.54704 | 37.57279 | 24563 ft | 450 kts | 190° |
| 2026-05-04 18:05 | 55.51555 | 37.57254 | 24768 ft | 457 kts | 174° |
| 2026-05-04 18:05 | 55.48473 | 37.58729 | 24984 ft | 464 kts | 159° |
| 2026-05-04 18:06 | 55.43449 | 37.65881 | 25454 ft | 476 kts | 126° |
| 2026-05-04 18:06 | 55.41912 | 37.71045 | 25682 ft | 480 kts | 110° |
| 2026-05-04 18:06 | 55.41111 | 37.76756 | 25941 ft | 482 kts | 102° |
| 2026-05-04 18:07 | 55.40598 | 37.80551 | 26087 ft | 482 kts | 107° |
| 2026-05-04 18:07 | 55.39436 | 37.86078 | 26332 ft | 482 kts | 117° |
| 2026-05-04 18:07 | 55.36837 | 37.92327 | 26663 ft | 479 kts | 138° |
| 2026-05-04 18:07 | 55.34267 | 37.96048 | 26923 ft | 479 kts | 145° |
| 2026-05-04 18:08 | 55.31562 | 37.99471 | 27174 ft | 480 kts | 147° |
| 2026-05-04 18:08 | 55.28817 | 38.02815 | 27434 ft | 481 kts | 147° |
| 2026-05-04 18:08 | 55.26985 | 38.05013 | 27600 ft | 482 kts | 147° |
| 2026-05-04 18:08 | 55.23260 | 38.09432 | 27947 ft | 484 kts | 147° |
| 2026-05-04 18:09 | 55.17688 | 38.15976 | 28454 ft | 487 kts | 148° |
| 2026-05-04 18:09 | 55.12030 | 38.22578 | 28971 ft | 490 kts | 147° |
| 2026-05-04 18:10 | 55.10156 | 38.24758 | 29146 ft | 491 kts | 147° |
| 2026-05-04 18:10 | 55.06343 | 38.29185 | 29450 ft | 493 kts | 147° |
| 2026-05-04 18:10 | 55.04447 | 38.31383 | 29616 ft | 494 kts | 147° |
| 2026-05-04 18:10 | 55.01580 | 38.34701 | 29865 ft | 495 kts | 147° |
| 2026-05-04 18:11 | 54.98708 | 38.38018 | 30087 ft | 497 kts | 147° |
| 2026-05-04 18:11 | 54.94892 | 38.42416 | 30456 ft | 497 kts | 147° |
| 2026-05-04 18:11 | 54.92013 | 38.45728 | 30750 ft | 496 kts | 147° |
| 2026-05-04 18:11 | 54.89128 | 38.49041 | 31042 ft | 496 kts | 147° |
| 2026-05-04 18:12 | 54.87224 | 38.51225 | 31247 ft | 496 kts | 147° |
| 2026-05-04 18:12 | 54.84348 | 38.54518 | 31547 ft | 495 kts | 147° |
| 2026-05-04 18:12 | 54.81476 | 38.57800 | 31858 ft | 495 kts | 147° |
| 2026-05-04 18:12 | 54.78602 | 38.61081 | 32152 ft | 494 kts | 147° |
| 2026-05-04 18:13 | 54.74796 | 38.65400 | 32537 ft | 494 kts | 148° |
| 2026-05-04 18:13 | 54.72819 | 38.67501 | 32728 ft | 493 kts | 149° |
| 2026-05-04 18:13 | 54.66960 | 38.73501 | 33305 ft | 492 kts | 149° |
| 2026-05-04 18:14 | 54.64017 | 38.76529 | 33590 ft | 492 kts | 149° |
| 2026-05-04 18:14 | 54.61077 | 38.79562 | 33865 ft | 492 kts | 149° |
| 2026-05-04 18:14 | 54.58146 | 38.82601 | 34134 ft | 491 kts | 149° |
| 2026-05-04 18:15 | 54.52300 | 38.88649 | 34643 ft | 490 kts | 149° |
| 2026-05-04 18:15 | 54.46494 | 38.94641 | 35091 ft | 490 kts | 149° |
| 2026-05-04 18:15 | 54.43608 | 38.97759 | 35293 ft | 490 kts | 144° |
| 2026-05-04 18:16 | 54.40971 | 39.01457 | 35517 ft | 489 kts | 135° |
| 2026-05-04 18:16 | 54.38723 | 39.05819 | 35730 ft | 489 kts | 126° |
| 2026-05-04 18:16 | 54.36428 | 39.12451 | 35969 ft | 488 kts | 113° |
| 2026-05-04 18:17 | 54.34188 | 39.21400 | 36279 ft | 488 kts | 111° |
| 2026-05-04 18:17 | 54.32931 | 39.26733 | 36467 ft | 489 kts | 111° |
| 2026-05-04 18:17 | 54.30390 | 39.37529 | 36823 ft | 489 kts | 111° |
| 2026-05-04 18:18 | 54.29096 | 39.42927 | 36911 ft | 492 kts | 112° |
| 2026-05-04 18:18 | 54.26454 | 39.53800 | 36916 ft | 497 kts | 112° |
| 2026-05-04 18:19 | 54.22461 | 39.70030 | 36918 ft | 495 kts | 112° |
| 2026-05-04 18:19 | 54.19780 | 39.80867 | 36917 ft | 495 kts | 112° |
| 2026-05-04 18:20 | 54.17090 | 39.91698 | 36920 ft | 495 kts | 112° |
| 2026-05-04 18:20 | 54.14391 | 40.02511 | 36924 ft | 495 kts | 113° |
| 2026-05-04 18:21 | 54.11790 | 40.13305 | 36926 ft | 495 kts | 107° |
| 2026-05-04 18:21 | 54.09740 | 40.24513 | 36921 ft | 495 kts | 106° |
| 2026-05-04 18:22 | 54.07793 | 40.35760 | 36922 ft | 496 kts | 106° |
| 2026-05-04 18:22 | 54.05843 | 40.47028 | 36926 ft | 496 kts | 106° |
| 2026-05-04 18:23 | 54.03889 | 40.58188 | 36923 ft | 496 kts | 106° |
| 2026-05-04 18:23 | 54.01902 | 40.69424 | 36924 ft | 496 kts | 107° |
| 2026-05-04 18:24 | 53.99903 | 40.80647 | 36926 ft | 496 kts | 107° |
| 2026-05-04 18:24 | 53.97894 | 40.91864 | 36925 ft | 496 kts | 107° |
| 2026-05-04 18:25 | 53.95887 | 41.03000 | 36926 ft | 496 kts | 107° |
| 2026-05-04 18:25 | 53.93948 | 41.14253 | 36928 ft | 497 kts | 105° |
| 2026-05-04 18:26 | 53.92132 | 41.25560 | 36927 ft | 497 kts | 105° |
| 2026-05-04 18:26 | 53.90312 | 41.36787 | 36931 ft | 497 kts | 105° |
| 2026-05-04 18:27 | 53.88446 | 41.48057 | 36931 ft | 497 kts | 105° |
| 2026-05-04 18:27 | 53.86557 | 41.59326 | 36929 ft | 497 kts | 105° |
| 2026-05-04 18:28 | 53.84656 | 41.70588 | 36927 ft | 497 kts | 105° |
| 2026-05-04 18:28 | 53.82760 | 41.81759 | 36930 ft | 497 kts | 106° |
| 2026-05-04 18:29 | 53.80829 | 41.93002 | 36930 ft | 497 kts | 106° |
| 2026-05-04 18:29 | 53.78885 | 42.04237 | 36933 ft | 497 kts | 106° |
| 2026-05-04 18:30 | 53.75954 | 42.21065 | 36936 ft | 498 kts | 106° |
| 2026-05-04 18:31 | 53.74001 | 42.32196 | 36935 ft | 498 kts | 106° |
| 2026-05-04 18:31 | 53.72022 | 42.43408 | 36937 ft | 498 kts | 106° |
| 2026-05-04 18:32 | 53.70035 | 42.54595 | 36940 ft | 498 kts | 106° |
| 2026-05-04 18:32 | 53.68048 | 42.65712 | 36941 ft | 498 kts | 106° |
| 2026-05-04 18:33 | 53.66140 | 42.76939 | 36943 ft | 498 kts | 104° |
| 2026-05-04 18:33 | 53.64409 | 42.88254 | 36944 ft | 498 kts | 104° |
| 2026-05-04 18:34 | 53.62672 | 42.99551 | 36951 ft | 499 kts | 104° |
| 2026-05-04 18:34 | 53.60888 | 43.10839 | 36947 ft | 499 kts | 104° |
| 2026-05-04 18:35 | 53.59092 | 43.22037 | 36950 ft | 499 kts | 104° |
| 2026-05-04 18:35 | 53.57270 | 43.33300 | 36949 ft | 499 kts | 105° |
| 2026-05-04 18:36 | 53.55438 | 43.44564 | 36952 ft | 499 kts | 105° |
| 2026-05-04 18:36 | 53.53609 | 43.55742 | 36955 ft | 499 kts | 105° |
| 2026-05-04 18:37 | 53.51755 | 43.66995 | 36958 ft | 500 kts | 105° |
| 2026-05-04 18:37 | 53.49889 | 43.78252 | 36961 ft | 500 kts | 105° |
| 2026-05-04 18:38 | 53.48014 | 43.89491 | 36958 ft | 500 kts | 105° |
| 2026-05-04 18:38 | 53.46138 | 44.00662 | 36958 ft | 501 kts | 105° |
| 2026-05-04 18:39 | 53.44237 | 44.11901 | 36964 ft | 501 kts | 105° |
| 2026-05-04 18:39 | 53.42325 | 44.23134 | 36960 ft | 501 kts | 105° |
| 2026-05-04 18:40 | 53.40401 | 44.34371 | 36964 ft | 502 kts | 105° |
| 2026-05-04 18:40 | 53.38466 | 44.45599 | 36966 ft | 502 kts | 105° |
| 2026-05-04 18:41 | 53.36533 | 44.56750 | 36966 ft | 502 kts | 105° |
| 2026-05-04 18:41 | 53.34577 | 44.67963 | 36967 ft | 502 kts | 106° |
| 2026-05-04 18:42 | 53.32607 | 44.79168 | 36966 ft | 502 kts | 106° |
| 2026-05-04 18:42 | 53.30625 | 44.90377 | 36968 ft | 503 kts | 106° |
| 2026-05-04 18:43 | 53.28644 | 45.01513 | 36969 ft | 503 kts | 106° |
| 2026-05-04 18:43 | 53.26585 | 45.12679 | 36970 ft | 503 kts | 109° |
| 2026-05-04 18:44 | 53.24176 | 45.23650 | 36973 ft | 503 kts | 110° |
| 2026-05-04 18:44 | 53.21694 | 45.34590 | 36969 ft | 504 kts | 110° |
| 2026-05-04 18:45 | 53.19271 | 45.45470 | 36973 ft | 504 kts | 110° |
| 2026-05-04 18:45 | 53.16853 | 45.56432 | 36974 ft | 504 kts | 110° |
| 2026-05-04 18:46 | 53.14427 | 45.67411 | 36975 ft | 505 kts | 110° |
| 2026-05-04 18:46 | 53.11992 | 45.78363 | 36976 ft | 505 kts | 110° |
| 2026-05-04 18:47 | 53.09566 | 45.89251 | 36976 ft | 505 kts | 110° |
| 2026-05-04 18:47 | 53.07133 | 46.00216 | 36980 ft | 505 kts | 110° |
| 2026-05-04 18:48 | 53.04690 | 46.11175 | 36982 ft | 506 kts | 110° |
| 2026-05-04 18:48 | 53.02233 | 46.22132 | 36979 ft | 506 kts | 110° |
| 2026-05-04 18:49 | 52.99781 | 46.33002 | 36976 ft | 506 kts | 110° |
| 2026-05-04 18:49 | 52.97299 | 46.43947 | 36979 ft | 507 kts | 110° |
| 2026-05-04 18:50 | 52.94810 | 46.54889 | 36978 ft | 507 kts | 111° |
| 2026-05-04 18:50 | 52.92304 | 46.65820 | 36984 ft | 507 kts | 111° |
| 2026-05-04 18:51 | 52.89805 | 46.76665 | 36980 ft | 508 kts | 111° |
| 2026-05-04 18:51 | 52.87276 | 46.87593 | 36984 ft | 508 kts | 111° |
| 2026-05-04 18:52 | 52.84736 | 46.98513 | 36979 ft | 508 kts | 111° |
| 2026-05-04 18:52 | 52.82202 | 47.09353 | 36984 ft | 509 kts | 111° |
| 2026-05-04 18:53 | 52.79733 | 47.20318 | 36985 ft | 509 kts | 109° |
| 2026-05-04 18:53 | 52.77420 | 47.31378 | 36987 ft | 510 kts | 109° |
| 2026-05-04 18:54 | 52.75096 | 47.42427 | 36983 ft | 510 kts | 109° |
| 2026-05-04 18:54 | 52.72742 | 47.53402 | 36987 ft | 510 kts | 110° |
| 2026-05-04 18:55 | 52.70360 | 47.64411 | 36983 ft | 511 kts | 110° |
| 2026-05-04 18:55 | 52.66763 | 47.80959 | 36980 ft | 511 kts | 110° |
| 2026-05-04 18:56 | 52.64368 | 47.91906 | 36980 ft | 511 kts | 110° |
| 2026-05-04 18:56 | 52.61948 | 48.02913 | 36980 ft | 512 kts | 110° |
| 2026-05-04 18:57 | 52.59520 | 48.13915 | 36975 ft | 512 kts | 110° |
| 2026-05-04 18:57 | 52.57070 | 48.24914 | 36978 ft | 512 kts | 110° |
| 2026-05-04 18:58 | 52.54622 | 48.35823 | 36977 ft | 512 kts | 111° |
| 2026-05-04 18:58 | 52.52147 | 48.46804 | 36979 ft | 513 kts | 111° |
| 2026-05-04 18:59 | 52.49664 | 48.57771 | 36980 ft | 513 kts | 111° |
| 2026-05-04 18:59 | 52.47172 | 48.68722 | 36978 ft | 513 kts | 111° |
| 2026-05-04 19:00 | 52.44683 | 48.79607 | 36973 ft | 513 kts | 111° |
| 2026-05-04 19:00 | 52.42164 | 48.90564 | 36979 ft | 514 kts | 111° |
| 2026-05-04 19:01 | 52.39633 | 49.01520 | 36978 ft | 514 kts | 111° |
| 2026-05-04 19:01 | 52.37092 | 49.12461 | 36975 ft | 514 kts | 111° |
| 2026-05-04 19:02 | 52.34554 | 49.23320 | 36975 ft | 515 kts | 111° |
| 2026-05-04 19:02 | 52.31978 | 49.34243 | 36974 ft | 515 kts | 111° |
| 2026-05-04 19:03 | 52.29392 | 49.45159 | 36974 ft | 515 kts | 112° |
| 2026-05-04 19:03 | 52.26824 | 49.55987 | 36975 ft | 515 kts | 112° |
| 2026-05-04 19:04 | 52.24222 | 49.66877 | 36972 ft | 515 kts | 112° |
| 2026-05-04 19:04 | 52.21608 | 49.77768 | 36974 ft | 515 kts | 112° |
| 2026-05-04 19:05 | 52.18985 | 49.88647 | 36973 ft | 516 kts | 112° |
| 2026-05-04 19:05 | 52.16370 | 49.99443 | 36974 ft | 516 kts | 112° |
| 2026-05-04 19:06 | 52.13726 | 50.10301 | 36974 ft | 516 kts | 112° |
| 2026-05-04 19:06 | 52.11072 | 50.21151 | 36973 ft | 516 kts | 112° |
| 2026-05-04 19:07 | 52.08408 | 50.31984 | 36974 ft | 516 kts | 112° |
| 2026-05-04 19:07 | 52.05752 | 50.42732 | 36979 ft | 516 kts | 113° |
| 2026-05-04 19:08 | 52.03066 | 50.53551 | 36977 ft | 516 kts | 113° |
| 2026-05-04 19:08 | 52.00372 | 50.64349 | 36975 ft | 516 kts | 113° |
| 2026-05-04 19:09 | 51.97514 | 50.74939 | 36976 ft | 515 kts | 121° |
| 2026-05-04 19:09 | 51.93139 | 50.83969 | 36970 ft | 508 kts | 141° |
| 2026-05-04 19:10 | 51.87234 | 50.89971 | 36975 ft | 500 kts | 161° |
| 2026-05-04 19:10 | 51.80620 | 50.93226 | 36974 ft | 497 kts | 168° |
| 2026-05-04 19:11 | 51.73908 | 50.95984 | 36974 ft | 497 kts | 169° |
| 2026-05-04 19:11 | 51.67350 | 50.99266 | 36972 ft | 501 kts | 158° |
| 2026-05-04 19:12 | 51.58343 | 51.08025 | 36974 ft | 505 kts | 149° |
| 2026-05-04 19:13 | 51.52506 | 51.14309 | 36974 ft | 505 kts | 149° |
| 2026-05-04 19:13 | 51.46655 | 51.20561 | 36972 ft | 505 kts | 149° |
| 2026-05-04 19:14 | 51.40842 | 51.26733 | 36970 ft | 504 kts | 149° |
| 2026-05-04 19:14 | 51.35024 | 51.32961 | 36967 ft | 504 kts | 149° |
| 2026-05-04 19:15 | 51.29184 | 51.39199 | 36967 ft | 504 kts | 149° |
| 2026-05-04 19:15 | 51.23354 | 51.45397 | 36965 ft | 503 kts | 149° |
| 2026-05-04 19:16 | 51.17530 | 51.51593 | 36963 ft | 504 kts | 148° |
| 2026-05-04 19:16 | 51.12391 | 51.59151 | 36965 ft | 510 kts | 134° |
| 2026-05-04 19:17 | 51.07817 | 51.67785 | 36965 ft | 511 kts | 132° |
| 2026-05-04 19:17 | 51.03323 | 51.76552 | 36967 ft | 512 kts | 132° |
| 2026-05-04 19:18 | 50.98841 | 51.85231 | 36966 ft | 512 kts | 133° |
| 2026-05-04 19:18 | 50.94305 | 51.93919 | 36963 ft | 511 kts | 133° |
| 2026-05-04 19:19 | 50.89749 | 52.02593 | 36963 ft | 511 kts | 133° |
| 2026-05-04 19:19 | 50.85194 | 52.11235 | 36963 ft | 511 kts | 133° |
| 2026-05-04 19:20 | 50.80629 | 52.19871 | 36968 ft | 511 kts | 133° |
| 2026-05-04 19:20 | 50.76089 | 52.28429 | 36968 ft | 511 kts | 134° |
| 2026-05-04 19:21 | 50.71524 | 52.37010 | 36979 ft | 511 kts | 134° |
| 2026-05-04 19:21 | 50.66946 | 52.45601 | 36955 ft | 511 kts | 134° |
| 2026-05-04 19:22 | 50.62388 | 52.54192 | 36968 ft | 511 kts | 134° |
| 2026-05-04 19:22 | 50.57862 | 52.62698 | 36964 ft | 510 kts | 134° |
| 2026-05-04 19:23 | 50.53295 | 52.71248 | 36965 ft | 510 kts | 134° |
| 2026-05-04 19:23 | 50.48729 | 52.79765 | 36965 ft | 510 kts | 134° |
| 2026-05-04 19:24 | 50.44158 | 52.88263 | 36965 ft | 509 kts | 134° |
| 2026-05-04 19:24 | 50.39614 | 52.96681 | 36967 ft | 509 kts | 134° |
| 2026-05-04 19:25 | 50.35042 | 53.05124 | 36965 ft | 508 kts | 135° |
| 2026-05-04 19:25 | 50.30455 | 53.13569 | 36963 ft | 508 kts | 135° |
| 2026-05-04 19:26 | 50.25905 | 53.21916 | 36965 ft | 508 kts | 135° |
| 2026-05-04 19:26 | 50.21326 | 53.30294 | 36965 ft | 507 kts | 135° |
| 2026-05-04 19:27 | 50.16744 | 53.38648 | 36966 ft | 506 kts | 135° |
| 2026-05-04 19:27 | 50.12162 | 53.46977 | 36964 ft | 505 kts | 135° |
| 2026-05-04 19:28 | 50.07617 | 53.55211 | 36964 ft | 504 kts | 135° |
| 2026-05-04 19:28 | 50.03042 | 53.63474 | 36961 ft | 503 kts | 135° |
| 2026-05-04 19:29 | 49.98464 | 53.71713 | 36963 ft | 503 kts | 135° |
| 2026-05-04 19:29 | 49.93888 | 53.79923 | 36959 ft | 502 kts | 135° |
| 2026-05-04 19:30 | 49.89341 | 53.88056 | 36956 ft | 502 kts | 135° |
| 2026-05-04 19:30 | 49.84766 | 53.96220 | 36955 ft | 502 kts | 135° |
| 2026-05-04 19:31 | 49.80182 | 54.04365 | 36954 ft | 501 kts | 135° |
| 2026-05-04 19:31 | 49.75625 | 54.12436 | 36952 ft | 501 kts | 135° |
| 2026-05-04 19:32 | 49.71030 | 54.20551 | 36947 ft | 501 kts | 135° |
| 2026-05-04 19:32 | 49.66435 | 54.28644 | 36939 ft | 501 kts | 135° |
| 2026-05-04 19:33 | 49.61831 | 54.36726 | 36947 ft | 501 kts | 135° |
| 2026-05-04 19:33 | 49.57224 | 54.44788 | 36939 ft | 501 kts | 135° |
| 2026-05-04 19:34 | 49.52642 | 54.52781 | 36940 ft | 501 kts | 135° |
| 2026-05-04 19:34 | 49.48022 | 54.60817 | 36937 ft | 501 kts | 135° |
| 2026-05-04 19:35 | 49.43396 | 54.68838 | 36933 ft | 501 kts | 135° |
| 2026-05-04 19:35 | 49.38766 | 54.76841 | 36927 ft | 501 kts | 135° |
| 2026-05-04 19:36 | 49.34163 | 54.84772 | 36920 ft | 501 kts | 135° |
| 2026-05-04 19:36 | 49.29521 | 54.92748 | 36923 ft | 501 kts | 135° |
| 2026-05-04 19:37 | 49.24874 | 55.00706 | 36925 ft | 501 kts | 135° |
| 2026-05-04 19:37 | 49.20258 | 55.08588 | 36917 ft | 501 kts | 135° |
| 2026-05-04 19:38 | 49.15599 | 55.16522 | 36916 ft | 501 kts | 135° |
| 2026-05-04 19:38 | 49.10947 | 55.24430 | 36913 ft | 501 kts | 135° |
| 2026-05-04 19:39 | 49.06276 | 55.32328 | 36914 ft | 501 kts | 136° |
| 2026-05-04 19:39 | 49.01636 | 55.40155 | 36910 ft | 501 kts | 136° |
| 2026-05-04 19:40 | 48.96963 | 55.48014 | 36908 ft | 501 kts | 136° |
| 2026-05-04 19:40 | 48.92284 | 55.55863 | 36909 ft | 501 kts | 136° |
| 2026-05-04 19:41 | 48.87598 | 55.63700 | 36905 ft | 501 kts | 136° |
| 2026-05-04 19:41 | 48.82947 | 55.71463 | 36902 ft | 501 kts | 136° |
| 2026-05-04 19:42 | 48.78253 | 55.79260 | 36899 ft | 500 kts | 136° |
| 2026-05-04 19:42 | 48.73549 | 55.87039 | 36899 ft | 500 kts | 136° |
| 2026-05-04 19:43 | 48.68842 | 55.94803 | 36900 ft | 500 kts | 136° |
| 2026-05-04 19:43 | 48.64168 | 56.02506 | 36897 ft | 500 kts | 136° |
| 2026-05-04 19:44 | 48.59450 | 56.10239 | 36901 ft | 500 kts | 136° |
| 2026-05-04 19:44 | 48.54724 | 56.17964 | 36895 ft | 500 kts | 136° |
| 2026-05-04 19:45 | 48.50003 | 56.25673 | 36892 ft | 500 kts | 136° |
| 2026-05-04 19:45 | 48.45308 | 56.33313 | 36894 ft | 500 kts | 136° |
| 2026-05-04 19:46 | 48.40569 | 56.40997 | 36896 ft | 500 kts | 136° |
| 2026-05-04 19:46 | 48.35831 | 56.48661 | 36893 ft | 500 kts | 136° |
| 2026-05-04 19:47 | 48.31121 | 56.56259 | 36900 ft | 500 kts | 136° |
| 2026-05-04 19:47 | 48.26377 | 56.63889 | 36895 ft | 500 kts | 136° |
| 2026-05-04 19:48 | 48.21633 | 56.71497 | 36899 ft | 499 kts | 136° |
| 2026-05-04 19:48 | 48.16883 | 56.79093 | 36901 ft | 499 kts | 136° |
| 2026-05-04 19:49 | 48.12163 | 56.86619 | 36904 ft | 499 kts | 136° |
| 2026-05-04 19:49 | 48.07413 | 56.94170 | 36904 ft | 498 kts | 136° |
| 2026-05-04 19:50 | 48.02656 | 57.01712 | 36917 ft | 498 kts | 136° |
| 2026-05-04 19:50 | 47.97903 | 57.09225 | 36918 ft | 498 kts | 136° |
| 2026-05-04 19:51 | 47.93177 | 57.16674 | 36896 ft | 498 kts | 136° |
| 2026-05-04 19:51 | 47.88407 | 57.24171 | 36909 ft | 498 kts | 136° |
| 2026-05-04 19:52 | 47.83631 | 57.31655 | 36902 ft | 499 kts | 136° |
| 2026-05-04 19:52 | 47.78879 | 57.39081 | 36910 ft | 499 kts | 136° |
| 2026-05-04 19:53 | 47.74085 | 57.46552 | 36912 ft | 499 kts | 136° |
| 2026-05-04 19:53 | 47.69287 | 57.54008 | 36911 ft | 500 kts | 136° |
| 2026-05-04 19:54 | 47.64482 | 57.61455 | 36911 ft | 500 kts | 136° |
| 2026-05-04 19:54 | 47.59669 | 57.68898 | 36911 ft | 500 kts | 136° |
| 2026-05-04 19:55 | 47.54883 | 57.76271 | 36913 ft | 500 kts | 136° |
| 2026-05-04 19:55 | 47.50060 | 57.83680 | 36910 ft | 500 kts | 136° |
| 2026-05-04 19:56 | 47.45232 | 57.91078 | 36911 ft | 500 kts | 136° |
| 2026-05-04 19:56 | 47.40433 | 57.98411 | 36911 ft | 500 kts | 136° |
| 2026-05-04 19:57 | 47.35599 | 58.05779 | 36909 ft | 500 kts | 136° |
| 2026-05-04 19:57 | 47.30758 | 58.13134 | 36910 ft | 500 kts | 136° |
| 2026-05-04 19:58 | 47.25910 | 58.20486 | 36907 ft | 500 kts | 136° |
| 2026-05-04 19:58 | 47.21086 | 58.27768 | 36914 ft | 500 kts | 136° |
| 2026-05-04 19:59 | 47.16223 | 58.35086 | 36910 ft | 501 kts | 136° |
| 2026-05-04 19:59 | 47.11349 | 58.42404 | 36906 ft | 501 kts | 136° |
| 2026-05-04 20:00 | 47.06467 | 58.49715 | 36908 ft | 502 kts | 136° |
| 2026-05-04 20:00 | 47.01607 | 58.56973 | 36900 ft | 502 kts | 137° |
| 2026-05-04 20:01 | 46.96706 | 58.64273 | 36907 ft | 503 kts | 137° |
| 2026-05-04 20:01 | 46.91799 | 58.71561 | 36920 ft | 503 kts | 137° |
| 2026-05-04 20:02 | 46.86882 | 58.78843 | 36903 ft | 503 kts | 137° |
| 2026-05-04 20:02 | 46.81998 | 58.86057 | 36901 ft | 503 kts | 137° |
| 2026-05-04 20:03 | 46.77077 | 58.93305 | 36910 ft | 502 kts | 137° |
| 2026-05-04 20:03 | 46.72155 | 59.00536 | 36908 ft | 502 kts | 137° |
| 2026-05-04 20:04 | 46.67227 | 59.07755 | 36905 ft | 502 kts | 137° |
| 2026-05-04 20:04 | 46.62332 | 59.14906 | 36930 ft | 502 kts | 137° |
| 2026-05-04 20:05 | 46.57395 | 59.22098 | 36917 ft | 502 kts | 137° |
| 2026-05-04 20:05 | 46.52458 | 59.29272 | 36927 ft | 502 kts | 137° |
| 2026-05-04 20:06 | 46.47517 | 59.36431 | 36924 ft | 502 kts | 137° |
| 2026-05-04 20:06 | 46.42602 | 59.43532 | 36924 ft | 502 kts | 137° |
| 2026-05-04 20:07 | 46.37652 | 59.50667 | 36920 ft | 502 kts | 137° |
| 2026-05-04 20:07 | 46.32694 | 59.57792 | 36923 ft | 502 kts | 137° |
| 2026-05-04 20:08 | 46.27738 | 59.64896 | 36921 ft | 502 kts | 138° |
| 2026-05-04 20:08 | 46.22810 | 59.71942 | 36918 ft | 502 kts | 138° |
| 2026-05-04 20:09 | 46.17759 | 59.78878 | 36927 ft | 501 kts | 140° |
| 2026-05-04 20:09 | 46.12590 | 59.85606 | 36924 ft | 501 kts | 141° |
| 2026-05-04 20:10 | 46.07423 | 59.92336 | 36922 ft | 501 kts | 140° |
| 2026-05-04 20:10 | 46.02304 | 59.99051 | 36921 ft | 501 kts | 140° |
| 2026-05-04 20:11 | 45.97160 | 60.05809 | 36923 ft | 501 kts | 140° |
| 2026-05-04 20:11 | 45.92006 | 60.12565 | 36927 ft | 501 kts | 140° |
| 2026-05-04 20:12 | 45.86848 | 60.19304 | 36930 ft | 501 kts | 140° |
| 2026-05-04 20:12 | 45.81722 | 60.25983 | 36929 ft | 501 kts | 140° |
| 2026-05-04 20:13 | 45.76555 | 60.32698 | 36932 ft | 502 kts | 140° |
| 2026-05-04 20:13 | 45.71385 | 60.39400 | 36934 ft | 502 kts | 140° |
| 2026-05-04 20:14 | 45.66207 | 60.46094 | 36933 ft | 502 kts | 140° |
| 2026-05-04 20:14 | 45.61062 | 60.52728 | 36941 ft | 502 kts | 141° |
| 2026-05-04 20:15 | 45.55875 | 60.59399 | 36934 ft | 502 kts | 141° |
| 2026-05-04 20:15 | 45.50687 | 60.66053 | 36944 ft | 502 kts | 141° |
| 2026-05-04 20:16 | 45.45525 | 60.72658 | 36946 ft | 502 kts | 141° |
| 2026-05-04 20:16 | 45.39901 | 60.78405 | 36948 ft | 496 kts | 155° |
| 2026-05-04 20:17 | 45.33767 | 60.82853 | 36945 ft | 495 kts | 157° |
| 2026-05-04 20:17 | 45.27560 | 60.87082 | 36948 ft | 495 kts | 157° |
| 2026-05-04 20:18 | 45.21394 | 60.91266 | 36948 ft | 495 kts | 157° |
| 2026-05-04 20:18 | 45.15192 | 60.95501 | 36948 ft | 495 kts | 157° |
| 2026-05-04 20:19 | 45.08990 | 60.99744 | 36950 ft | 495 kts | 157° |
| 2026-05-04 20:19 | 45.02795 | 61.03974 | 36948 ft | 495 kts | 157° |
| 2026-05-04 20:20 | 44.96630 | 61.08173 | 36950 ft | 495 kts | 157° |
| 2026-05-04 20:20 | 44.90432 | 61.12382 | 36951 ft | 495 kts | 157° |
| 2026-05-04 20:21 | 44.84228 | 61.16585 | 36951 ft | 495 kts | 157° |
| 2026-05-04 20:21 | 44.74917 | 61.22874 | 36952 ft | 495 kts | 157° |
| 2026-05-04 20:22 | 44.68755 | 61.27025 | 36953 ft | 495 kts | 157° |
| 2026-05-04 20:22 | 44.62546 | 61.31196 | 36949 ft | 495 kts | 157° |
| 2026-05-04 20:23 | 44.56337 | 61.35358 | 36947 ft | 495 kts | 157° |
| 2026-05-04 20:23 | 44.50161 | 61.39488 | 36950 ft | 495 kts | 157° |
| 2026-05-04 20:24 | 44.43946 | 61.43634 | 36947 ft | 495 kts | 157° |
| 2026-05-04 20:24 | 44.37727 | 61.47773 | 36946 ft | 495 kts | 157° |
| 2026-05-04 20:25 | 44.31504 | 61.51904 | 36950 ft | 495 kts | 157° |
| 2026-05-04 20:25 | 44.25327 | 61.55996 | 36950 ft | 495 kts | 157° |
| 2026-05-04 20:26 | 44.19102 | 61.60111 | 36950 ft | 495 kts | 157° |
| 2026-05-04 20:26 | 44.12883 | 61.64214 | 36952 ft | 495 kts | 157° |
| 2026-05-04 20:27 | 44.06664 | 61.68314 | 36951 ft | 495 kts | 157° |
| 2026-05-04 20:27 | 44.00475 | 61.72382 | 36949 ft | 495 kts | 157° |
| 2026-05-04 20:28 | 43.94245 | 61.76467 | 36951 ft | 495 kts | 157° |
| 2026-05-04 20:28 | 43.88015 | 61.80544 | 36946 ft | 495 kts | 157° |
| 2026-05-04 20:29 | 43.81779 | 61.84616 | 36951 ft | 495 kts | 157° |
| 2026-05-04 20:29 | 43.75584 | 61.88652 | 36948 ft | 496 kts | 157° |
| 2026-05-04 20:30 | 43.69341 | 61.92709 | 36949 ft | 496 kts | 157° |
| 2026-05-04 20:30 | 43.63093 | 61.96760 | 36950 ft | 496 kts | 157° |
| 2026-05-04 20:31 | 43.56845 | 62.00803 | 36951 ft | 496 kts | 157° |
| 2026-05-04 20:31 | 43.50637 | 62.04810 | 36952 ft | 497 kts | 157° |
| 2026-05-04 20:32 | 43.44509 | 62.09221 | 36959 ft | 499 kts | 149° |
| 2026-05-04 20:32 | 43.38707 | 62.14498 | 36959 ft | 500 kts | 148° |
| 2026-05-04 20:33 | 43.32961 | 62.19910 | 36952 ft | 501 kts | 148° |
| 2026-05-04 20:33 | 43.27255 | 62.25281 | 36943 ft | 501 kts | 148° |
| 2026-05-04 20:34 | 43.21497 | 62.30664 | 36953 ft | 501 kts | 148° |
| 2026-05-04 20:34 | 43.15731 | 62.36029 | 36958 ft | 501 kts | 148° |
| 2026-05-04 20:35 | 43.09957 | 62.41384 | 36952 ft | 501 kts | 148° |
| 2026-05-04 20:35 | 43.04218 | 62.46697 | 36952 ft | 501 kts | 148° |
| 2026-05-04 20:36 | 42.98441 | 62.52034 | 36954 ft | 501 kts | 148° |
| 2026-05-04 20:36 | 42.92659 | 62.57363 | 36961 ft | 501 kts | 148° |
| 2026-05-04 20:37 | 42.86874 | 62.62682 | 36963 ft | 501 kts | 148° |
| 2026-05-04 20:37 | 42.81126 | 62.67956 | 36958 ft | 502 kts | 148° |
| 2026-05-04 20:38 | 42.75333 | 62.73258 | 36952 ft | 502 kts | 148° |
| 2026-05-04 20:38 | 42.69541 | 62.78547 | 36961 ft | 502 kts | 148° |
| 2026-05-04 20:39 | 42.63747 | 62.83827 | 36959 ft | 502 kts | 148° |
| 2026-05-04 20:39 | 42.57982 | 62.89068 | 36963 ft | 502 kts | 148° |
| 2026-05-04 20:40 | 42.52180 | 62.94330 | 36965 ft | 502 kts | 148° |
| 2026-05-04 20:40 | 42.46366 | 62.99592 | 36968 ft | 502 kts | 148° |
| 2026-05-04 20:41 | 42.40593 | 63.04805 | 37125 ft | 502 kts | 148° |
| 2026-05-04 20:41 | 42.37689 | 63.07426 | 37410 ft | 501 kts | 148° |
| 2026-05-04 20:41 | 42.34799 | 63.10030 | 37656 ft | 500 kts | 149° |
| 2026-05-04 20:42 | 42.31906 | 63.12631 | 37865 ft | 500 kts | 149° |
| 2026-05-04 20:42 | 42.29010 | 63.15230 | 38088 ft | 499 kts | 149° |
| 2026-05-04 20:42 | 42.26114 | 63.17827 | 38278 ft | 499 kts | 149° |
| 2026-05-04 20:42 | 42.23219 | 63.20421 | 38453 ft | 500 kts | 149° |
| 2026-05-04 20:43 | 42.20324 | 63.23012 | 38618 ft | 500 kts | 149° |
| 2026-05-04 20:43 | 42.17463 | 63.25570 | 38761 ft | 500 kts | 149° |
| 2026-05-04 20:43 | 42.14563 | 63.28160 | 38884 ft | 500 kts | 149° |
| 2026-05-04 20:43 | 42.11655 | 63.30755 | 38952 ft | 502 kts | 149° |
| 2026-05-04 20:44 | 42.05800 | 63.35969 | 38963 ft | 505 kts | 149° |
| 2026-05-04 20:44 | 41.99940 | 63.41178 | 38963 ft | 505 kts | 149° |
| 2026-05-04 20:45 | 41.94110 | 63.46348 | 38964 ft | 505 kts | 149° |
| 2026-05-04 20:45 | 41.88239 | 63.51544 | 38963 ft | 506 kts | 149° |
| 2026-05-04 20:46 | 41.82365 | 63.56729 | 38961 ft | 506 kts | 149° |
| 2026-05-04 20:46 | 41.76479 | 63.61913 | 38963 ft | 506 kts | 149° |
| 2026-05-04 20:47 | 41.70625 | 63.67059 | 38963 ft | 507 kts | 149° |
| 2026-05-04 20:47 | 41.64727 | 63.72231 | 38966 ft | 507 kts | 149° |
| 2026-05-04 20:48 | 41.58829 | 63.77391 | 38968 ft | 507 kts | 149° |
| 2026-05-04 20:48 | 41.52918 | 63.82553 | 38969 ft | 508 kts | 149° |
| 2026-05-04 20:49 | 41.47041 | 63.87673 | 38974 ft | 508 kts | 149° |
| 2026-05-04 20:49 | 41.41123 | 63.92817 | 38973 ft | 508 kts | 149° |
| 2026-05-04 20:50 | 41.35192 | 63.97967 | 38977 ft | 509 kts | 149° |
| 2026-05-04 20:50 | 41.29259 | 64.03106 | 38979 ft | 509 kts | 149° |
| 2026-05-04 20:51 | 41.23363 | 64.08202 | 38973 ft | 509 kts | 149° |
| 2026-05-04 20:51 | 41.17414 | 64.13333 | 38975 ft | 510 kts | 149° |
| 2026-05-04 20:52 | 41.11461 | 64.18457 | 38970 ft | 510 kts | 149° |
| 2026-05-04 20:52 | 41.05494 | 64.23582 | 38970 ft | 511 kts | 149° |
| 2026-05-04 20:53 | 40.99567 | 64.28662 | 38971 ft | 511 kts | 149° |
| 2026-05-04 20:53 | 40.93593 | 64.33770 | 38966 ft | 512 kts | 149° |
| 2026-05-04 20:54 | 40.87606 | 64.38879 | 38959 ft | 512 kts | 149° |
| 2026-05-04 20:54 | 40.81610 | 64.43983 | 38966 ft | 513 kts | 150° |
| 2026-05-04 20:55 | 40.75608 | 64.49082 | 38957 ft | 513 kts | 150° |
| 2026-05-04 20:55 | 40.69641 | 64.54141 | 38958 ft | 513 kts | 150° |
| 2026-05-04 20:56 | 40.63630 | 64.59225 | 38954 ft | 514 kts | 150° |
| 2026-05-04 20:56 | 40.57612 | 64.64304 | 38954 ft | 514 kts | 150° |
| 2026-05-04 20:57 | 40.51629 | 64.69343 | 38957 ft | 514 kts | 150° |
| 2026-05-04 20:57 | 40.45597 | 64.74412 | 38949 ft | 515 kts | 150° |
| 2026-05-04 20:58 | 40.39565 | 64.79470 | 38954 ft | 515 kts | 150° |
| 2026-05-04 20:58 | 40.33524 | 64.84525 | 38956 ft | 515 kts | 150° |
| 2026-05-04 20:59 | 40.27521 | 64.89537 | 38958 ft | 515 kts | 150° |
| 2026-05-04 20:59 | 40.21469 | 64.94580 | 38952 ft | 516 kts | 150° |
| 2026-05-04 21:00 | 40.15406 | 64.99620 | 38954 ft | 516 kts | 150° |
| 2026-05-04 21:00 | 40.09335 | 65.04656 | 38956 ft | 517 kts | 150° |
| 2026-05-04 21:01 | 40.03301 | 65.09652 | 38954 ft | 517 kts | 150° |
| 2026-05-04 21:01 | 39.97218 | 65.14677 | 38952 ft | 518 kts | 150° |
| 2026-05-04 21:02 | 39.91134 | 65.19692 | 38954 ft | 518 kts | 150° |
| 2026-05-04 21:02 | 39.85037 | 65.24706 | 38955 ft | 518 kts | 150° |
| 2026-05-04 21:03 | 39.78980 | 65.29678 | 38958 ft | 519 kts | 150° |
| 2026-05-04 21:03 | 39.72875 | 65.34678 | 38954 ft | 519 kts | 150° |
| 2026-05-04 21:04 | 39.66759 | 65.39678 | 38957 ft | 519 kts | 150° |
| 2026-05-04 21:04 | 39.60640 | 65.44668 | 38953 ft | 520 kts | 150° |
| 2026-05-04 21:05 | 39.54516 | 65.49652 | 38954 ft | 520 kts | 150° |
| 2026-05-04 21:05 | 39.48429 | 65.54596 | 38955 ft | 520 kts | 150° |
| 2026-05-04 21:06 | 39.42287 | 65.59573 | 38957 ft | 521 kts | 150° |
| 2026-05-04 21:06 | 39.36147 | 65.64539 | 38959 ft | 521 kts | 150° |
| 2026-05-04 21:07 | 39.30003 | 65.69497 | 38952 ft | 521 kts | 150° |
| 2026-05-04 21:07 | 39.23889 | 65.74421 | 38963 ft | 521 kts | 150° |
| 2026-05-04 21:08 | 39.17731 | 65.79370 | 38958 ft | 522 kts | 150° |
| 2026-05-04 21:08 | 39.11572 | 65.84310 | 38959 ft | 522 kts | 150° |
| 2026-05-04 21:09 | 39.05403 | 65.89247 | 38954 ft | 522 kts | 150° |
| 2026-05-04 21:09 | 38.99272 | 65.94144 | 38961 ft | 522 kts | 150° |
| 2026-05-04 21:10 | 38.93095 | 65.99067 | 38962 ft | 523 kts | 150° |
| 2026-05-04 21:10 | 38.86912 | 66.03984 | 38963 ft | 523 kts | 150° |
| 2026-05-04 21:11 | 38.80763 | 66.08865 | 38963 ft | 523 kts | 150° |
| 2026-05-04 21:11 | 38.74573 | 66.13768 | 38964 ft | 523 kts | 150° |
| 2026-05-04 21:12 | 38.68384 | 66.18661 | 38970 ft | 523 kts | 150° |
| 2026-05-04 21:12 | 38.62191 | 66.23546 | 38977 ft | 523 kts | 150° |
| 2026-05-04 21:13 | 38.56057 | 66.28435 | 38980 ft | 523 kts | 150° |
| 2026-05-04 21:13 | 38.49903 | 66.33410 | 38984 ft | 523 kts | 150° |
| 2026-05-04 21:14 | 38.43751 | 66.38369 | 38989 ft | 524 kts | 150° |
| 2026-05-04 21:14 | 38.37584 | 66.43316 | 38996 ft | 524 kts | 150° |
| 2026-05-04 21:15 | 38.31449 | 66.48222 | 39006 ft | 524 kts | 150° |
| 2026-05-04 21:15 | 38.25279 | 66.53144 | 39011 ft | 524 kts | 150° |
| 2026-05-04 21:16 | 38.19095 | 66.58068 | 39021 ft | 524 kts | 150° |
| 2026-05-04 21:16 | 38.12954 | 66.62948 | 39021 ft | 525 kts | 150° |
| 2026-05-04 21:17 | 38.06763 | 66.67859 | 39023 ft | 524 kts | 150° |
| 2026-05-04 21:17 | 38.00572 | 66.72760 | 39019 ft | 525 kts | 150° |
| 2026-05-04 21:18 | 37.94366 | 66.77631 | 39015 ft | 525 kts | 150° |
| 2026-05-04 21:18 | 37.88182 | 66.82436 | 39011 ft | 525 kts | 151° |
| 2026-05-04 21:19 | 37.81956 | 66.87269 | 38999 ft | 525 kts | 150° |
| 2026-05-04 21:19 | 37.75729 | 66.92103 | 39003 ft | 525 kts | 151° |
| 2026-05-04 21:20 | 37.69499 | 66.96932 | 38985 ft | 525 kts | 151° |
| 2026-05-04 21:20 | 37.63305 | 67.01724 | 38980 ft | 525 kts | 151° |
| 2026-05-04 21:21 | 37.57074 | 67.06535 | 38967 ft | 525 kts | 151° |
| 2026-05-04 21:21 | 37.50834 | 67.11344 | 38965 ft | 526 kts | 151° |
| 2026-05-04 21:22 | 37.44595 | 67.16141 | 38964 ft | 526 kts | 151° |
| 2026-05-04 21:22 | 37.38386 | 67.20907 | 38960 ft | 526 kts | 151° |
| 2026-05-04 21:23 | 37.32137 | 67.25692 | 38963 ft | 526 kts | 151° |
| 2026-05-04 21:23 | 37.25881 | 67.30475 | 38954 ft | 526 kts | 151° |
| 2026-05-04 21:24 | 37.19622 | 67.35249 | 38951 ft | 526 kts | 151° |
| 2026-05-04 21:24 | 37.13262 | 67.39768 | 38956 ft | 525 kts | 154° |
| 2026-05-04 21:25 | 37.06878 | 67.44099 | 38953 ft | 525 kts | 154° |
| 2026-05-04 21:25 | 37.00457 | 67.48486 | 38955 ft | 526 kts | 154° |
| 2026-05-04 21:26 | 36.94051 | 67.52903 | 38958 ft | 526 kts | 154° |
| 2026-05-04 21:26 | 36.87644 | 67.57330 | 38968 ft | 526 kts | 154° |
| 2026-05-04 21:27 | 36.81276 | 67.61721 | 38975 ft | 527 kts | 154° |
| 2026-05-04 21:27 | 36.74857 | 67.66137 | 38981 ft | 527 kts | 154° |
| 2026-05-04 21:28 | 36.68438 | 67.70553 | 38993 ft | 527 kts | 154° |
| 2026-05-04 21:28 | 36.62019 | 67.74977 | 39000 ft | 527 kts | 154° |
| 2026-05-04 21:29 | 36.55641 | 67.79365 | 39006 ft | 527 kts | 154° |
| 2026-05-04 21:29 | 36.49222 | 67.83771 | 39019 ft | 528 kts | 154° |
| 2026-05-04 21:30 | 36.42790 | 67.88177 | 39026 ft | 528 kts | 154° |
| 2026-05-04 21:30 | 36.36352 | 67.92580 | 39034 ft | 528 kts | 154° |
| 2026-05-04 21:31 | 36.26733 | 67.99142 | 39047 ft | 528 kts | 154° |
| 2026-05-04 21:32 | 36.20292 | 68.03526 | 39060 ft | 528 kts | 154° |
| 2026-05-04 21:32 | 36.13843 | 68.07905 | 39063 ft | 528 kts | 154° |
| 2026-05-04 21:33 | 36.07442 | 68.12246 | 39067 ft | 529 kts | 154° |
| 2026-05-04 21:33 | 36.00989 | 68.16613 | 39080 ft | 529 kts | 154° |
| 2026-05-04 21:34 | 35.94533 | 68.20973 | 39077 ft | 529 kts | 154° |
| 2026-05-04 21:34 | 35.88066 | 68.25333 | 39076 ft | 530 kts | 154° |
| 2026-05-04 21:35 | 35.81642 | 68.29655 | 39087 ft | 530 kts | 154° |
| 2026-05-04 21:35 | 35.75160 | 68.34005 | 39085 ft | 531 kts | 155° |
| 2026-05-04 21:36 | 35.68676 | 68.38354 | 39084 ft | 531 kts | 155° |
| 2026-05-04 21:36 | 35.62186 | 68.42699 | 39106 ft | 531 kts | 155° |
| 2026-05-04 21:37 | 35.55733 | 68.47012 | 39109 ft | 531 kts | 155° |
| 2026-05-04 21:37 | 35.49226 | 68.51318 | 39099 ft | 532 kts | 155° |
| 2026-05-04 21:38 | 35.42710 | 68.55615 | 39122 ft | 532 kts | 155° |
| 2026-05-04 21:38 | 35.36190 | 68.59913 | 39130 ft | 532 kts | 155° |
| 2026-05-04 21:39 | 35.29722 | 68.64172 | 39127 ft | 532 kts | 155° |
| 2026-05-04 21:39 | 35.23198 | 68.68459 | 39135 ft | 532 kts | 155° |
| 2026-05-04 21:40 | 35.16667 | 68.72749 | 39127 ft | 533 kts | 155° |
| 2026-05-04 21:40 | 35.10134 | 68.77032 | 39115 ft | 533 kts | 155° |
| 2026-05-04 21:41 | 35.03643 | 68.81279 | 39105 ft | 534 kts | 155° |
| 2026-05-04 21:41 | 34.97094 | 68.85553 | 39090 ft | 534 kts | 155° |
| 2026-05-04 21:42 | 34.90538 | 68.89824 | 39075 ft | 535 kts | 155° |
| 2026-05-04 21:42 | 34.83975 | 68.94092 | 39056 ft | 534 kts | 155° |
| 2026-05-04 21:43 | 34.77459 | 68.98319 | 39050 ft | 535 kts | 155° |
| 2026-05-04 21:43 | 34.70888 | 69.02571 | 39039 ft | 534 kts | 155° |
| 2026-05-04 21:44 | 34.64339 | 69.06812 | 39036 ft | 533 kts | 155° |
| 2026-05-04 21:44 | 34.57846 | 69.11022 | 39023 ft | 533 kts | 154° |
| 2026-05-04 21:45 | 34.51934 | 69.16493 | 39027 ft | 539 kts | 134° |
| 2026-05-04 21:45 | 34.49625 | 69.20070 | 39028 ft | 540 kts | 122° |
| 2026-05-04 21:45 | 34.47735 | 69.24007 | 39027 ft | 541 kts | 118° |
| 2026-05-04 21:46 | 34.44278 | 69.32107 | 39026 ft | 542 kts | 116° |
| 2026-05-04 21:46 | 34.40925 | 69.40217 | 39025 ft | 542 kts | 117° |
| 2026-05-04 21:47 | 34.37504 | 69.48364 | 39030 ft | 543 kts | 117° |
| 2026-05-04 21:47 | 34.34042 | 69.56493 | 39033 ft | 544 kts | 117° |
| 2026-05-04 21:48 | 34.30564 | 69.64612 | 39028 ft | 544 kts | 117° |
| 2026-05-04 21:48 | 34.27097 | 69.72688 | 39035 ft | 545 kts | 117° |
| 2026-05-04 21:49 | 34.23601 | 69.80816 | 39025 ft | 545 kts | 117° |
| 2026-05-04 21:49 | 34.20103 | 69.88931 | 39024 ft | 545 kts | 118° |
| 2026-05-04 21:50 | 34.16595 | 69.97047 | 39031 ft | 545 kts | 118° |
| 2026-05-04 21:50 | 34.13083 | 70.05088 | 39026 ft | 545 kts | 118° |
| 2026-05-04 21:51 | 34.09539 | 70.13166 | 39017 ft | 545 kts | 118° |
| 2026-05-04 21:51 | 34.05979 | 70.21258 | 39014 ft | 546 kts | 118° |
| 2026-05-04 21:52 | 34.02413 | 70.29357 | 39016 ft | 547 kts | 118° |
| 2026-05-04 21:52 | 33.98866 | 70.37399 | 39012 ft | 547 kts | 118° |
| 2026-05-04 21:53 | 33.95283 | 70.45496 | 39002 ft | 548 kts | 118° |
| 2026-05-04 21:53 | 33.90750 | 70.52806 | 39006 ft | 544 kts | 136° |
| 2026-05-04 21:54 | 33.85398 | 70.59129 | 39004 ft | 543 kts | 139° |
| 2026-05-04 21:54 | 33.79872 | 70.65334 | 38999 ft | 544 kts | 139° |
| 2026-05-04 21:55 | 33.74331 | 70.71546 | 38989 ft | 545 kts | 139° |
| 2026-05-04 21:55 | 33.68809 | 70.77776 | 38981 ft | 544 kts | 139° |
| 2026-05-04 21:56 | 33.63333 | 70.83964 | 38983 ft | 544 kts | 139° |
| 2026-05-04 21:56 | 33.57826 | 70.90179 | 38975 ft | 544 kts | 139° |
| 2026-05-04 21:57 | 33.52760 | 70.96914 | 38971 ft | 547 kts | 124° |
| 2026-05-04 21:57 | 33.50931 | 71.00903 | 38958 ft | 547 kts | 112° |
| 2026-05-04 21:57 | 33.49746 | 71.05219 | 38963 ft | 545 kts | 100° |
| 2026-05-04 21:57 | 33.49264 | 71.09640 | 38958 ft | 541 kts | 89° |
| 2026-05-04 21:58 | 33.49343 | 71.14133 | 38956 ft | 539 kts | 84° |
| 2026-05-04 21:58 | 33.49905 | 71.23099 | 38954 ft | 540 kts | 82° |
| 2026-05-04 21:59 | 33.50558 | 71.32064 | 38950 ft | 540 kts | 82° |
| 2026-05-04 21:59 | 33.51155 | 71.40972 | 38945 ft | 540 kts | 82° |
| 2026-05-04 22:00 | 33.51714 | 71.49944 | 38939 ft | 540 kts | 82° |
| 2026-05-04 22:00 | 33.52258 | 71.58920 | 38936 ft | 540 kts | 82° |
| 2026-05-04 22:01 | 33.52705 | 71.66370 | 38937 ft | 540 kts | 83° |
| 2026-05-04 22:01 | 33.53238 | 71.75343 | 38938 ft | 540 kts | 83° |
| 2026-05-04 22:01 | 33.53252 | 71.81317 | 38931 ft | 543 kts | 94° |
| 2026-05-04 22:02 | 33.52588 | 71.85778 | 38930 ft | 545 kts | 105° |
| 2026-05-04 22:02 | 33.51273 | 71.90026 | 38925 ft | 545 kts | 116° |
| 2026-05-04 22:02 | 33.50078 | 71.92675 | 38929 ft | 545 kts | 121° |
| 2026-05-04 22:03 | 33.45354 | 72.01657 | 38923 ft | 545 kts | 124° |
| 2026-05-04 22:03 | 33.41195 | 72.09178 | 38917 ft | 545 kts | 124° |
| 2026-05-04 22:04 | 33.37045 | 72.16751 | 38918 ft | 544 kts | 124° |
| 2026-05-04 22:04 | 33.33615 | 72.23060 | 38919 ft | 544 kts | 124° |
| 2026-05-04 22:05 | 33.29499 | 72.30646 | 38921 ft | 543 kts | 124° |
| 2026-05-04 22:05 | 33.24719 | 72.39438 | 38919 ft | 543 kts | 124° |
| 2026-05-04 22:06 | 33.21273 | 72.45759 | 38918 ft | 542 kts | 124° |
| 2026-05-04 22:06 | 33.16493 | 72.54508 | 38919 ft | 541 kts | 124° |
| 2026-05-04 22:07 | 33.13076 | 72.60748 | 38922 ft | 540 kts | 124° |
| 2026-05-04 22:07 | 33.08965 | 72.68244 | 38926 ft | 540 kts | 124° |
| 2026-05-04 22:08 | 33.04879 | 72.75677 | 38928 ft | 539 kts | 124° |
| 2026-05-04 22:08 | 33.00070 | 72.84407 | 38930 ft | 539 kts | 124° |
| 2026-05-04 22:09 | 32.96646 | 72.90610 | 38925 ft | 539 kts | 124° |
| 2026-05-04 22:09 | 32.91853 | 72.99277 | 38927 ft | 539 kts | 125° |
| 2026-05-04 22:10 | 32.87726 | 73.06724 | 38925 ft | 539 kts | 125° |
| 2026-05-04 22:10 | 32.84291 | 73.12910 | 38919 ft | 539 kts | 125° |
| 2026-05-04 22:11 | 32.79483 | 73.21553 | 38919 ft | 539 kts | 125° |
| 2026-05-04 22:11 | 32.75575 | 73.27332 | 38917 ft | 533 kts | 139° |
| 2026-05-04 22:12 | 32.69983 | 73.32966 | 38911 ft | 530 kts | 145° |
| 2026-05-04 22:12 | 32.63190 | 73.39253 | 38906 ft | 529 kts | 146° |
| 2026-05-04 22:13 | 32.58354 | 73.43690 | 38902 ft | 528 kts | 146° |
| 2026-05-04 22:13 | 32.52558 | 73.49040 | 38900 ft | 527 kts | 145° |
| 2026-05-04 22:14 | 32.46823 | 73.54351 | 38897 ft | 526 kts | 145° |
| 2026-05-04 22:14 | 32.41055 | 73.59690 | 38898 ft | 526 kts | 145° |
| 2026-05-04 22:15 | 32.35288 | 73.65017 | 38892 ft | 525 kts | 146° |
| 2026-05-04 22:15 | 32.29526 | 73.70330 | 38898 ft | 525 kts | 146° |
| 2026-05-04 22:16 | 32.23810 | 73.75591 | 38891 ft | 525 kts | 146° |
| 2026-05-04 22:16 | 32.18047 | 73.80887 | 38894 ft | 525 kts | 146° |
| 2026-05-04 22:17 | 32.12283 | 73.86175 | 38888 ft | 525 kts | 146° |
| 2026-05-04 22:17 | 32.06516 | 73.91457 | 38892 ft | 526 kts | 146° |
| 2026-05-04 22:18 | 32.00779 | 73.96703 | 38888 ft | 525 kts | 146° |
| 2026-05-04 22:18 | 31.95001 | 74.01978 | 38885 ft | 525 kts | 146° |
| 2026-05-04 22:19 | 31.89225 | 74.07244 | 38881 ft | 525 kts | 146° |
| 2026-05-04 22:19 | 31.83447 | 74.12502 | 38877 ft | 525 kts | 146° |
| 2026-05-04 22:20 | 31.77716 | 74.17708 | 38874 ft | 524 kts | 146° |
| 2026-05-04 22:20 | 31.71937 | 74.22949 | 38869 ft | 524 kts | 146° |
| 2026-05-04 22:21 | 31.66172 | 74.28170 | 38861 ft | 523 kts | 146° |
| 2026-05-04 22:21 | 31.60409 | 74.33381 | 38856 ft | 523 kts | 146° |
| 2026-05-04 22:22 | 31.54694 | 74.38540 | 38854 ft | 521 kts | 147° |
| 2026-05-04 22:22 | 31.48947 | 74.43720 | 38855 ft | 521 kts | 147° |
| 2026-05-04 22:23 | 31.43199 | 74.48891 | 38858 ft | 521 kts | 147° |
| 2026-05-04 22:23 | 31.37495 | 74.54015 | 38856 ft | 521 kts | 147° |
| 2026-05-04 22:24 | 31.31962 | 74.59527 | 38855 ft | 523 kts | 141° |
| 2026-05-04 22:24 | 31.26639 | 74.65333 | 38860 ft | 524 kts | 141° |
| 2026-05-04 22:25 | 31.21339 | 74.71183 | 38858 ft | 524 kts | 141° |
| 2026-05-04 22:25 | 31.16076 | 74.76977 | 38857 ft | 523 kts | 141° |
| 2026-05-04 22:26 | 31.10779 | 74.82785 | 38855 ft | 522 kts | 141° |
| 2026-05-04 22:26 | 31.05478 | 74.88580 | 38862 ft | 522 kts | 141° |
| 2026-05-04 22:27 | 31.00213 | 74.94327 | 38854 ft | 522 kts | 141° |
| 2026-05-04 22:27 | 30.94917 | 75.00098 | 38843 ft | 521 kts | 141° |
| 2026-05-04 22:28 | 30.89620 | 75.05862 | 38850 ft | 521 kts | 141° |
| 2026-05-04 22:28 | 30.84332 | 75.11609 | 38845 ft | 520 kts | 142° |
| 2026-05-04 22:29 | 30.79430 | 75.17764 | 38856 ft | 527 kts | 129° |
| 2026-05-04 22:29 | 30.75259 | 75.24789 | 38855 ft | 529 kts | 127° |
| 2026-05-04 22:30 | 30.71226 | 75.31936 | 38855 ft | 529 kts | 127° |
| 2026-05-04 22:30 | 30.67221 | 75.39042 | 38853 ft | 529 kts | 127° |
| 2026-05-04 22:31 | 30.63169 | 75.46170 | 38851 ft | 529 kts | 128° |
| 2026-05-04 22:31 | 30.59102 | 75.53285 | 38857 ft | 528 kts | 128° |
| 2026-05-04 22:32 | 30.55038 | 75.60376 | 38855 ft | 528 kts | 128° |
| 2026-05-04 22:32 | 30.51000 | 75.67412 | 38855 ft | 527 kts | 128° |
| 2026-05-04 22:33 | 30.46941 | 75.74474 | 38855 ft | 526 kts | 128° |
| 2026-05-04 22:33 | 30.42883 | 75.81522 | 38862 ft | 525 kts | 128° |
| 2026-05-04 22:34 | 30.38826 | 75.88553 | 38863 ft | 524 kts | 128° |
| 2026-05-04 22:34 | 30.34798 | 75.95524 | 38863 ft | 524 kts | 129° |
| 2026-05-04 22:35 | 30.30746 | 76.02524 | 38863 ft | 523 kts | 129° |
| 2026-05-04 22:35 | 30.26692 | 76.09515 | 38857 ft | 523 kts | 129° |
| 2026-05-04 22:36 | 30.22640 | 76.16491 | 38867 ft | 522 kts | 129° |
| 2026-05-04 22:36 | 30.18621 | 76.23400 | 38867 ft | 520 kts | 129° |
| 2026-05-04 22:37 | 30.14589 | 76.30318 | 38872 ft | 519 kts | 129° |
| 2026-05-04 22:37 | 30.10552 | 76.37230 | 38869 ft | 519 kts | 129° |
| 2026-05-04 22:38 | 30.06540 | 76.44088 | 38870 ft | 519 kts | 129° |
| 2026-05-04 22:38 | 30.02501 | 76.50983 | 38872 ft | 519 kts | 129° |
| 2026-05-04 22:39 | 29.98457 | 76.57874 | 38876 ft | 518 kts | 129° |
| 2026-05-04 22:39 | 29.94414 | 76.64751 | 38879 ft | 518 kts | 129° |
| 2026-05-04 22:40 | 29.90398 | 76.71570 | 38878 ft | 518 kts | 129° |
| 2026-05-04 22:40 | 29.86349 | 76.78434 | 38881 ft | 518 kts | 129° |
| 2026-05-04 22:41 | 29.82298 | 76.85290 | 38878 ft | 518 kts | 129° |
| 2026-05-04 22:41 | 29.78242 | 76.92143 | 38881 ft | 518 kts | 130° |
| 2026-05-04 22:42 | 29.74213 | 76.98939 | 38882 ft | 517 kts | 130° |
| 2026-05-04 22:42 | 29.70163 | 77.05760 | 38880 ft | 516 kts | 130° |
| 2026-05-04 22:43 | 29.66118 | 77.12562 | 38884 ft | 515 kts | 130° |
| 2026-05-04 22:43 | 29.62078 | 77.19342 | 38884 ft | 514 kts | 130° |
| 2026-05-04 22:44 | 29.58064 | 77.26068 | 38887 ft | 513 kts | 130° |
| 2026-05-04 22:44 | 29.54027 | 77.32821 | 38885 ft | 512 kts | 130° |
| 2026-05-04 22:45 | 29.49994 | 77.39556 | 38878 ft | 512 kts | 130° |
| 2026-05-04 22:45 | 29.43970 | 77.49596 | 38883 ft | 511 kts | 130° |
| 2026-05-04 22:46 | 29.39940 | 77.56300 | 38878 ft | 510 kts | 130° |
| 2026-05-04 22:46 | 29.35905 | 77.63000 | 38881 ft | 511 kts | 131° |
| 2026-05-04 22:47 | 29.31865 | 77.69697 | 38887 ft | 511 kts | 131° |
| 2026-05-04 22:47 | 29.27845 | 77.76350 | 38879 ft | 512 kts | 131° |
| 2026-05-04 22:48 | 29.23786 | 77.83060 | 38880 ft | 512 kts | 131° |
| 2026-05-04 22:48 | 29.19723 | 77.89762 | 38879 ft | 513 kts | 131° |
| 2026-05-04 22:49 | 29.15680 | 77.96422 | 38878 ft | 513 kts | 131° |
| 2026-05-04 22:49 | 29.11603 | 78.03126 | 38881 ft | 513 kts | 131° |
| 2026-05-04 22:50 | 29.07532 | 78.09812 | 38882 ft | 512 kts | 131° |
| 2026-05-04 22:50 | 29.03460 | 78.16488 | 38882 ft | 511 kts | 131° |
| 2026-05-04 22:51 | 28.99420 | 78.23101 | 38883 ft | 511 kts | 131° |
| 2026-05-04 22:51 | 28.95355 | 78.29744 | 38879 ft | 510 kts | 131° |
| 2026-05-04 22:52 | 28.91290 | 78.36377 | 38878 ft | 509 kts | 131° |
| 2026-05-04 22:52 | 28.87231 | 78.42989 | 38880 ft | 508 kts | 131° |
| 2026-05-04 22:53 | 28.83210 | 78.49528 | 38880 ft | 507 kts | 131° |
| 2026-05-04 22:53 | 28.79160 | 78.56103 | 38876 ft | 506 kts | 131° |
| 2026-05-04 22:54 | 28.75122 | 78.62650 | 38876 ft | 505 kts | 131° |
| 2026-05-04 22:54 | 28.71106 | 78.69151 | 38875 ft | 504 kts | 131° |
| 2026-05-04 22:55 | 28.67070 | 78.75675 | 38872 ft | 504 kts | 131° |
| 2026-05-04 22:55 | 28.63025 | 78.82201 | 38882 ft | 505 kts | 131° |
| 2026-05-04 22:56 | 28.58974 | 78.88729 | 38882 ft | 505 kts | 131° |
| 2026-05-04 22:56 | 28.54938 | 78.95220 | 38881 ft | 506 kts | 130° |
| 2026-05-04 22:57 | 28.50867 | 79.01759 | 38882 ft | 507 kts | 130° |
| 2026-05-04 22:57 | 28.46781 | 79.08313 | 38876 ft | 509 kts | 130° |
| 2026-05-04 22:58 | 28.42682 | 79.14877 | 38881 ft | 510 kts | 130° |
| 2026-05-04 22:58 | 28.38592 | 79.21416 | 38881 ft | 512 kts | 130° |
| 2026-05-04 22:59 | 28.34450 | 79.28027 | 38879 ft | 515 kts | 130° |
| 2026-05-04 22:59 | 28.30288 | 79.34662 | 38873 ft | 517 kts | 130° |
| 2026-05-04 23:00 | 28.26108 | 79.41315 | 38880 ft | 519 kts | 130° |
| 2026-05-04 23:00 | 28.21941 | 79.47939 | 38883 ft | 521 kts | 130° |
| 2026-05-04 23:01 | 28.17725 | 79.54629 | 38885 ft | 522 kts | 131° |
| 2026-05-04 23:01 | 28.13498 | 79.61328 | 38885 ft | 523 kts | 131° |
| 2026-05-04 23:02 | 28.09254 | 79.68042 | 38888 ft | 525 kts | 132° |
| 2026-05-04 23:02 | 28.05024 | 79.74723 | 38888 ft | 526 kts | 132° |
| 2026-05-04 23:03 | 28.00753 | 79.81457 | 38887 ft | 527 kts | 133° |
| 2026-05-04 23:03 | 27.96468 | 79.88203 | 38891 ft | 528 kts | 133° |
| 2026-05-04 23:04 | 27.92179 | 79.94947 | 38886 ft | 528 kts | 133° |
| 2026-05-04 23:04 | 27.87924 | 80.01625 | 38885 ft | 527 kts | 133° |
| 2026-05-04 23:05 | 27.83642 | 80.08334 | 38887 ft | 525 kts | 133° |
| 2026-05-04 23:05 | 27.79376 | 80.15010 | 38888 ft | 524 kts | 133° |
| 2026-05-04 23:06 | 27.75115 | 80.21666 | 38888 ft | 523 kts | 133° |
| 2026-05-04 23:06 | 27.70883 | 80.28266 | 38885 ft | 522 kts | 133° |
| 2026-05-04 23:07 | 27.66630 | 80.34890 | 38891 ft | 521 kts | 133° |
| 2026-05-04 23:07 | 27.62373 | 80.41508 | 38892 ft | 521 kts | 133° |
| 2026-05-04 23:08 | 27.58115 | 80.48119 | 38890 ft | 522 kts | 133° |
| 2026-05-04 23:08 | 27.53874 | 80.54693 | 38890 ft | 522 kts | 133° |
| 2026-05-04 23:09 | 27.49601 | 80.61308 | 38895 ft | 522 kts | 133° |
| 2026-05-04 23:09 | 27.45326 | 80.67917 | 38891 ft | 522 kts | 133° |
| 2026-05-04 23:10 | 27.41045 | 80.74525 | 38891 ft | 523 kts | 133° |
| 2026-05-04 23:10 | 27.36782 | 80.81094 | 38895 ft | 523 kts | 133° |
| 2026-05-04 23:11 | 27.32491 | 80.87697 | 38894 ft | 523 kts | 133° |
| 2026-05-04 23:11 | 27.28194 | 80.94299 | 38896 ft | 523 kts | 133° |
| 2026-05-04 23:12 | 27.23893 | 81.00898 | 38892 ft | 523 kts | 133° |
| 2026-05-04 23:12 | 27.19616 | 81.07449 | 38902 ft | 523 kts | 133° |
| 2026-05-04 23:13 | 27.15310 | 81.14036 | 38893 ft | 523 kts | 133° |
| 2026-05-04 23:13 | 27.11001 | 81.20618 | 38892 ft | 523 kts | 133° |
| 2026-05-04 23:14 | 27.06682 | 81.27204 | 38889 ft | 524 kts | 133° |
| 2026-05-04 23:14 | 27.02360 | 81.33787 | 38888 ft | 524 kts | 133° |
| 2026-05-04 23:15 | 26.98058 | 81.40329 | 38882 ft | 525 kts | 133° |
| 2026-05-04 23:15 | 26.93724 | 81.46911 | 38885 ft | 525 kts | 133° |
| 2026-05-04 23:16 | 26.89479 | 81.53586 | 38885 ft | 527 kts | 131° |
| 2026-05-04 23:16 | 26.85320 | 81.60358 | 38888 ft | 528 kts | 130° |
| 2026-05-04 23:17 | 26.81179 | 81.67068 | 38891 ft | 528 kts | 131° |
| 2026-05-04 23:17 | 26.76983 | 81.73808 | 38889 ft | 528 kts | 131° |
| 2026-05-04 23:18 | 26.72775 | 81.80536 | 38882 ft | 528 kts | 131° |
| 2026-05-04 23:18 | 26.68590 | 81.87215 | 38885 ft | 528 kts | 131° |
| 2026-05-04 23:19 | 26.64381 | 81.93927 | 38880 ft | 527 kts | 131° |
| 2026-05-04 23:19 | 26.60165 | 82.00639 | 38886 ft | 527 kts | 131° |
| 2026-05-04 23:20 | 26.55951 | 82.07339 | 38889 ft | 527 kts | 131° |
| 2026-05-04 23:20 | 26.51766 | 82.13982 | 38881 ft | 527 kts | 131° |
| 2026-05-04 23:21 | 26.47546 | 82.20672 | 38881 ft | 526 kts | 131° |
| 2026-05-04 23:21 | 26.43326 | 82.27352 | 38879 ft | 526 kts | 131° |
| 2026-05-04 23:22 | 26.39133 | 82.33978 | 38888 ft | 526 kts | 131° |
| 2026-05-04 23:22 | 26.34911 | 82.40643 | 38944 ft | 526 kts | 131° |
| 2026-05-04 23:23 | 26.30673 | 82.47322 | 38885 ft | 529 kts | 131° |
| 2026-05-04 23:23 | 26.26413 | 82.54023 | 38879 ft | 530 kts | 131° |
| 2026-05-04 23:24 | 26.22174 | 82.60685 | 38887 ft | 530 kts | 131° |
| 2026-05-04 23:24 | 26.17904 | 82.67384 | 38885 ft | 531 kts | 131° |
| 2026-05-04 23:25 | 26.13631 | 82.74081 | 38885 ft | 531 kts | 131° |
| 2026-05-04 23:25 | 26.09353 | 82.80774 | 38885 ft | 531 kts | 131° |
| 2026-05-04 23:26 | 26.05073 | 82.87460 | 38883 ft | 530 kts | 131° |
| 2026-05-04 23:26 | 26.00820 | 82.94094 | 38884 ft | 530 kts | 131° |
| 2026-05-04 23:27 | 25.96539 | 83.00762 | 38893 ft | 530 kts | 131° |
| 2026-05-04 23:27 | 25.92255 | 83.07426 | 38887 ft | 529 kts | 131° |
| 2026-05-04 23:28 | 25.87973 | 83.14077 | 38884 ft | 529 kts | 131° |
| 2026-05-04 23:28 | 25.83726 | 83.20665 | 38888 ft | 529 kts | 131° |
| 2026-05-04 23:29 | 25.79443 | 83.27298 | 38888 ft | 528 kts | 132° |
| 2026-05-04 23:29 | 25.75210 | 83.33965 | 38887 ft | 529 kts | 130° |
| 2026-05-04 23:30 | 25.71084 | 83.40669 | 38889 ft | 530 kts | 130° |
| 2026-05-04 23:30 | 25.66931 | 83.47410 | 38891 ft | 530 kts | 130° |
| 2026-05-04 23:31 | 25.62759 | 83.54135 | 38890 ft | 530 kts | 130° |
| 2026-05-04 23:31 | 25.58575 | 83.60852 | 38891 ft | 530 kts | 130° |
| 2026-05-04 23:32 | 25.54413 | 83.67521 | 38891 ft | 530 kts | 130° |
| 2026-05-04 23:32 | 25.50224 | 83.74225 | 38892 ft | 530 kts | 130° |
| 2026-05-04 23:33 | 25.46028 | 83.80933 | 38886 ft | 529 kts | 130° |
| 2026-05-04 23:33 | 25.41838 | 83.87623 | 38891 ft | 529 kts | 131° |
| 2026-05-04 23:34 | 25.37666 | 83.94273 | 38888 ft | 529 kts | 131° |
| 2026-05-04 23:34 | 25.33472 | 84.00949 | 38889 ft | 529 kts | 131° |
| 2026-05-04 23:35 | 25.29273 | 84.07623 | 38891 ft | 529 kts | 131° |
| 2026-05-04 23:35 | 25.25072 | 84.14291 | 38891 ft | 528 kts | 131° |
| 2026-05-04 23:36 | 25.20901 | 84.20901 | 38891 ft | 528 kts | 131° |
| 2026-05-04 23:36 | 25.16693 | 84.27562 | 38891 ft | 528 kts | 131° |
| 2026-05-04 23:37 | 25.12487 | 84.34210 | 38893 ft | 528 kts | 131° |
| 2026-05-04 23:37 | 25.08276 | 84.40858 | 38893 ft | 528 kts | 131° |
| 2026-05-04 23:38 | 25.04090 | 84.47455 | 38889 ft | 529 kts | 131° |
| 2026-05-04 23:38 | 24.99869 | 84.54099 | 38890 ft | 529 kts | 131° |
| 2026-05-04 23:39 | 24.95646 | 84.60737 | 38896 ft | 529 kts | 131° |
| 2026-05-04 23:39 | 24.91447 | 84.67329 | 38892 ft | 529 kts | 131° |
| 2026-05-04 23:40 | 24.87216 | 84.73960 | 38893 ft | 529 kts | 131° |
| 2026-05-04 23:40 | 24.82978 | 84.80596 | 38897 ft | 530 kts | 131° |
| 2026-05-04 23:41 | 24.78734 | 84.87229 | 38896 ft | 530 kts | 131° |
| 2026-05-04 23:41 | 24.74520 | 84.93809 | 38899 ft | 530 kts | 131° |
| 2026-05-04 23:42 | 24.70328 | 85.00493 | 38898 ft | 531 kts | 130° |
| 2026-05-04 23:42 | 24.66213 | 85.07231 | 38899 ft | 531 kts | 129° |
| 2026-05-04 23:43 | 24.62088 | 85.13969 | 38904 ft | 531 kts | 129° |
| 2026-05-04 23:43 | 24.57980 | 85.20637 | 38906 ft | 530 kts | 130° |
| 2026-05-04 23:44 | 24.53837 | 85.27337 | 38905 ft | 530 kts | 130° |
| 2026-05-04 23:44 | 24.49694 | 85.34026 | 38910 ft | 530 kts | 130° |
| 2026-05-04 23:45 | 24.45544 | 85.40718 | 38918 ft | 530 kts | 130° |
| 2026-05-04 23:45 | 24.41427 | 85.47350 | 38923 ft | 530 kts | 129° |
| 2026-05-04 23:46 | 24.37278 | 85.54024 | 38923 ft | 529 kts | 129° |
| 2026-05-04 23:46 | 24.33128 | 85.60690 | 38928 ft | 529 kts | 129° |
| 2026-05-04 23:47 | 24.28975 | 85.67353 | 38936 ft | 529 kts | 129° |
| 2026-05-04 23:47 | 24.24852 | 85.73959 | 38942 ft | 529 kts | 129° |
| 2026-05-04 23:48 | 24.20697 | 85.80607 | 38941 ft | 528 kts | 129° |
| 2026-05-04 23:48 | 24.16545 | 85.87240 | 38938 ft | 528 kts | 129° |
| 2026-05-04 23:49 | 24.12390 | 85.93870 | 38942 ft | 528 kts | 129° |
| 2026-05-04 23:49 | 24.08265 | 86.00444 | 38936 ft | 527 kts | 129° |
| 2026-05-04 23:50 | 24.04113 | 86.07050 | 38940 ft | 527 kts | 129° |
| 2026-05-04 23:50 | 23.99960 | 86.13651 | 38933 ft | 526 kts | 129° |
| 2026-05-04 23:51 | 23.95808 | 86.20241 | 38920 ft | 526 kts | 129° |
| 2026-05-04 23:51 | 23.91687 | 86.26774 | 38929 ft | 525 kts | 129° |
| 2026-05-04 23:52 | 23.87536 | 86.33343 | 38926 ft | 525 kts | 129° |
| 2026-05-04 23:52 | 23.83383 | 86.39909 | 38920 ft | 525 kts | 129° |
| 2026-05-04 23:53 | 23.79277 | 86.46490 | 38920 ft | 525 kts | 126° |
| 2026-05-04 23:53 | 23.75521 | 86.53282 | 38920 ft | 526 kts | 124° |
| 2026-05-04 23:54 | 23.71818 | 86.60171 | 38914 ft | 525 kts | 124° |
| 2026-05-04 23:54 | 23.68076 | 86.67003 | 38913 ft | 525 kts | 125° |
| 2026-05-04 23:55 | 23.64296 | 86.73807 | 38910 ft | 524 kts | 125° |
| 2026-05-04 23:56 | 23.58644 | 86.83934 | 38908 ft | 523 kts | 125° |
| 2026-05-04 23:56 | 23.54861 | 86.90702 | 38902 ft | 522 kts | 125° |
| 2026-05-04 23:57 | 23.51080 | 86.97460 | 38891 ft | 522 kts | 126° |
| 2026-05-04 23:57 | 23.47327 | 87.04164 | 38891 ft | 522 kts | 126° |
| 2026-05-04 23:58 | 23.43546 | 87.10920 | 38888 ft | 522 kts | 126° |
| 2026-05-04 23:58 | 23.39765 | 87.17669 | 38886 ft | 523 kts | 126° |
| 2026-05-04 23:59 | 23.35973 | 87.24429 | 38885 ft | 523 kts | 126° |
| 2026-05-04 23:59 | 23.32176 | 87.31188 | 38886 ft | 524 kts | 126° |
| 2026-05-05 00:00 | 23.28401 | 87.37899 | 38886 ft | 524 kts | 126° |
| 2026-05-05 00:00 | 23.24592 | 87.44661 | 38878 ft | 525 kts | 126° |
| 2026-05-05 00:01 | 23.20772 | 87.51434 | 38880 ft | 525 kts | 126° |
| 2026-05-05 00:01 | 23.16950 | 87.58200 | 38884 ft | 526 kts | 126° |
| 2026-05-05 00:02 | 23.13149 | 87.64921 | 38880 ft | 526 kts | 126° |
| 2026-05-05 00:02 | 23.09313 | 87.71696 | 38881 ft | 526 kts | 126° |
| 2026-05-05 00:03 | 23.05476 | 87.78463 | 38876 ft | 527 kts | 126° |
| 2026-05-05 00:03 | 23.01659 | 87.85186 | 38879 ft | 527 kts | 126° |
| 2026-05-05 00:04 | 22.97813 | 87.91951 | 38881 ft | 527 kts | 126° |
| 2026-05-05 00:04 | 22.93964 | 87.98714 | 38886 ft | 526 kts | 126° |
| 2026-05-05 00:05 | 22.90116 | 88.05466 | 38887 ft | 525 kts | 126° |
| 2026-05-05 00:05 | 22.86300 | 88.12151 | 38891 ft | 524 kts | 126° |
| 2026-05-05 00:06 | 22.82462 | 88.18867 | 38886 ft | 523 kts | 126° |
| 2026-05-05 00:06 | 22.78632 | 88.25560 | 38874 ft | 522 kts | 126° |
| 2026-05-05 00:07 | 22.74806 | 88.32238 | 38865 ft | 521 kts | 126° |
| 2026-05-05 00:07 | 22.71012 | 88.38852 | 38854 ft | 520 kts | 126° |
| 2026-05-05 00:08 | 22.67192 | 88.45501 | 38849 ft | 520 kts | 126° |
| 2026-05-05 00:08 | 22.63132 | 88.51939 | 38850 ft | 517 kts | 130° |
| 2026-05-05 00:09 | 22.58883 | 88.58202 | 38849 ft | 516 kts | 130° |
| 2026-05-05 00:09 | 22.54686 | 88.64443 | 38867 ft | 516 kts | 130° |
| 2026-05-05 00:10 | 22.50502 | 88.70756 | 38885 ft | 516 kts | 129° |
| 2026-05-05 00:10 | 22.46335 | 88.77075 | 38908 ft | 516 kts | 129° |
| 2026-05-05 00:11 | 22.42157 | 88.83403 | 38913 ft | 517 kts | 129° |
| 2026-05-05 00:11 | 22.38011 | 88.89672 | 38915 ft | 517 kts | 129° |
| 2026-05-05 00:12 | 22.33826 | 88.95990 | 38914 ft | 517 kts | 129° |
| 2026-05-05 00:12 | 22.29639 | 89.02305 | 39017 ft | 518 kts | 129° |
| 2026-05-05 00:12 | 22.27590 | 89.05507 | 39226 ft | 518 kts | 128° |
| 2026-05-05 00:13 | 22.25597 | 89.08748 | 39450 ft | 517 kts | 127° |
| 2026-05-05 00:13 | 22.23629 | 89.11995 | 39650 ft | 517 kts | 127° |
| 2026-05-05 00:13 | 22.21690 | 89.15200 | 39836 ft | 516 kts | 127° |
| 2026-05-05 00:13 | 22.19722 | 89.18435 | 40051 ft | 515 kts | 127° |
| 2026-05-05 00:14 | 22.17749 | 89.21658 | 40218 ft | 515 kts | 127° |
| 2026-05-05 00:14 | 22.15772 | 89.24873 | 40399 ft | 514 kts | 127° |
| 2026-05-05 00:14 | 22.13792 | 89.28081 | 40564 ft | 513 kts | 127° |
| 2026-05-05 00:14 | 22.11809 | 89.31286 | 40734 ft | 513 kts | 127° |
| 2026-05-05 00:15 | 22.09832 | 89.34479 | 40882 ft | 513 kts | 127° |
| 2026-05-05 00:15 | 22.05865 | 89.40880 | 40915 ft | 512 kts | 127° |
| 2026-05-05 00:16 | 22.01933 | 89.47220 | 40915 ft | 512 kts | 127° |
| 2026-05-05 00:16 | 21.97974 | 89.53598 | 40912 ft | 512 kts | 127° |
| 2026-05-05 00:17 | 21.94014 | 89.59970 | 40917 ft | 512 kts | 127° |
| 2026-05-05 00:17 | 21.90073 | 89.66303 | 40917 ft | 512 kts | 127° |
| 2026-05-05 00:18 | 21.86108 | 89.72668 | 40916 ft | 512 kts | 127° |
| 2026-05-05 00:18 | 21.82141 | 89.79030 | 40918 ft | 512 kts | 127° |
| 2026-05-05 00:19 | 21.78196 | 89.85347 | 40916 ft | 512 kts | 127° |
| 2026-05-05 00:19 | 21.74227 | 89.91697 | 40917 ft | 512 kts | 127° |
| 2026-05-05 00:20 | 21.70252 | 89.98047 | 40916 ft | 511 kts | 127° |
| 2026-05-05 00:20 | 21.66281 | 90.04385 | 40914 ft | 511 kts | 127° |
| 2026-05-05 00:21 | 21.62305 | 90.10724 | 40916 ft | 511 kts | 127° |
| 2026-05-05 00:21 | 21.58361 | 90.17004 | 40913 ft | 511 kts | 127° |
| 2026-05-05 00:22 | 21.54385 | 90.23327 | 40913 ft | 510 kts | 127° |
| 2026-05-05 00:22 | 21.50411 | 90.29640 | 40913 ft | 510 kts | 127° |
| 2026-05-05 00:23 | 21.46462 | 90.35907 | 40913 ft | 510 kts | 127° |
| 2026-05-05 00:23 | 21.42488 | 90.42207 | 40913 ft | 510 kts | 127° |
| 2026-05-05 00:24 | 21.38513 | 90.48500 | 40915 ft | 509 kts | 127° |
| 2026-05-05 00:24 | 21.34536 | 90.54790 | 40912 ft | 509 kts | 127° |
| 2026-05-05 00:25 | 21.30587 | 90.61034 | 40912 ft | 509 kts | 127° |
| 2026-05-05 00:25 | 21.26607 | 90.67320 | 40910 ft | 509 kts | 127° |
| 2026-05-05 00:26 | 21.22631 | 90.73594 | 40910 ft | 509 kts | 127° |
| 2026-05-05 00:26 | 21.18679 | 90.79823 | 40910 ft | 509 kts | 127° |
| 2026-05-05 00:27 | 21.14703 | 90.86083 | 40911 ft | 508 kts | 127° |
| 2026-05-05 00:27 | 21.10722 | 90.92343 | 40908 ft | 508 kts | 127° |
| 2026-05-05 00:28 | 21.06742 | 90.98596 | 40910 ft | 508 kts | 127° |
| 2026-05-05 00:28 | 21.02759 | 91.04845 | 40914 ft | 508 kts | 127° |
| 2026-05-05 00:29 | 20.98805 | 91.11043 | 40913 ft | 508 kts | 127° |
| 2026-05-05 00:29 | 20.94822 | 91.17279 | 40913 ft | 507 kts | 127° |
| 2026-05-05 00:30 | 20.90839 | 91.23509 | 40911 ft | 507 kts | 127° |
| 2026-05-05 00:30 | 20.86853 | 91.29736 | 40911 ft | 507 kts | 127° |
| 2026-05-05 00:31 | 20.82899 | 91.35906 | 40911 ft | 507 kts | 127° |
| 2026-05-05 00:31 | 20.78912 | 91.42121 | 40911 ft | 507 kts | 127° |
| 2026-05-05 00:32 | 20.74923 | 91.48332 | 40911 ft | 506 kts | 127° |
| 2026-05-05 00:32 | 20.70966 | 91.54487 | 40913 ft | 506 kts | 127° |
| 2026-05-05 00:33 | 20.66976 | 91.60686 | 40911 ft | 506 kts | 127° |
| 2026-05-05 00:33 | 20.62990 | 91.66873 | 40910 ft | 506 kts | 127° |
| 2026-05-05 00:34 | 20.59004 | 91.73054 | 40908 ft | 505 kts | 127° |
| 2026-05-05 00:34 | 20.55045 | 91.79186 | 40907 ft | 505 kts | 127° |
| 2026-05-05 00:35 | 20.51059 | 91.85352 | 40909 ft | 505 kts | 127° |
| 2026-05-05 00:35 | 20.47071 | 91.91515 | 40910 ft | 505 kts | 127° |
| 2026-05-05 00:36 | 20.43085 | 91.97669 | 40911 ft | 504 kts | 127° |
| 2026-05-05 00:36 | 20.39116 | 92.03776 | 40912 ft | 504 kts | 127° |
| 2026-05-05 00:37 | 20.35081 | 92.09877 | 40911 ft | 504 kts | 127° |
| 2026-05-05 00:37 | 20.31041 | 92.15967 | 40910 ft | 503 kts | 127° |
| 2026-05-05 00:38 | 20.27005 | 92.22061 | 40909 ft | 503 kts | 127° |
| 2026-05-05 00:38 | 20.23001 | 92.28110 | 40908 ft | 503 kts | 127° |
| 2026-05-05 00:39 | 20.18974 | 92.34190 | 40907 ft | 503 kts | 127° |
| 2026-05-05 00:39 | 20.14941 | 92.40272 | 40905 ft | 502 kts | 127° |
| 2026-05-05 00:40 | 20.10912 | 92.46341 | 40909 ft | 502 kts | 127° |
| 2026-05-05 00:40 | 20.06907 | 92.52368 | 40905 ft | 502 kts | 127° |
| 2026-05-05 00:41 | 20.02873 | 92.58432 | 40904 ft | 502 kts | 127° |
| 2026-05-05 00:41 | 19.98841 | 92.64486 | 40905 ft | 502 kts | 127° |
| 2026-05-05 00:42 | 19.94806 | 92.70539 | 40907 ft | 502 kts | 127° |
| 2026-05-05 00:42 | 19.90802 | 92.76541 | 40905 ft | 501 kts | 127° |
| 2026-05-05 00:43 | 19.86764 | 92.82586 | 40913 ft | 501 kts | 127° |
| 2026-05-05 00:43 | 19.82725 | 92.88627 | 40905 ft | 501 kts | 127° |
| 2026-05-05 00:44 | 19.78685 | 92.94662 | 40902 ft | 501 kts | 127° |
| 2026-05-05 00:44 | 19.74672 | 93.00652 | 40915 ft | 501 kts | 127° |
| 2026-05-05 00:45 | 19.70632 | 93.06677 | 40918 ft | 501 kts | 127° |
| 2026-05-05 00:45 | 19.66588 | 93.12700 | 40897 ft | 501 kts | 127° |
| 2026-05-05 00:46 | 19.62570 | 93.18680 | 40908 ft | 501 kts | 127° |
| 2026-05-05 00:46 | 19.58523 | 93.24696 | 40917 ft | 501 kts | 127° |
| 2026-05-05 00:47 | 19.54473 | 93.30711 | 40899 ft | 501 kts | 127° |
| 2026-05-05 00:47 | 19.50421 | 93.36722 | 40912 ft | 501 kts | 127° |
| 2026-05-05 00:48 | 19.46369 | 93.42729 | 40911 ft | 501 kts | 127° |
| 2026-05-05 00:48 | 19.42339 | 93.48696 | 40912 ft | 501 kts | 127° |
| 2026-05-05 00:49 | 19.38282 | 93.54697 | 40906 ft | 501 kts | 127° |
| 2026-05-05 00:49 | 19.34228 | 93.60688 | 40900 ft | 501 kts | 127° |
| 2026-05-05 00:50 | 19.30169 | 93.66680 | 40907 ft | 500 kts | 127° |
| 2026-05-05 00:50 | 19.26138 | 93.72627 | 40908 ft | 500 kts | 127° |
| 2026-05-05 00:51 | 19.22079 | 93.78607 | 40903 ft | 500 kts | 127° |
| 2026-05-05 00:51 | 19.18023 | 93.84580 | 40911 ft | 500 kts | 127° |
| 2026-05-05 00:52 | 19.13990 | 93.90511 | 40905 ft | 500 kts | 127° |
| 2026-05-05 00:52 | 19.09931 | 93.96474 | 40903 ft | 500 kts | 127° |
| 2026-05-05 00:53 | 19.05872 | 94.02431 | 40906 ft | 499 kts | 127° |
| 2026-05-05 00:53 | 19.01810 | 94.08389 | 40910 ft | 499 kts | 127° |
| 2026-05-05 00:54 | 18.97773 | 94.14303 | 40923 ft | 499 kts | 127° |
| 2026-05-05 00:54 | 18.93709 | 94.20249 | 40921 ft | 499 kts | 127° |
| 2026-05-05 00:55 | 18.89646 | 94.26193 | 40921 ft | 499 kts | 127° |
| 2026-05-05 00:55 | 18.85582 | 94.32130 | 40925 ft | 499 kts | 127° |
| 2026-05-05 00:56 | 18.81517 | 94.38064 | 40931 ft | 499 kts | 127° |
| 2026-05-05 00:56 | 18.77478 | 94.43952 | 40938 ft | 498 kts | 127° |
| 2026-05-05 00:57 | 18.73414 | 94.49872 | 40933 ft | 498 kts | 127° |
| 2026-05-05 00:57 | 18.69346 | 94.55793 | 40939 ft | 498 kts | 127° |
| 2026-05-05 00:58 | 18.65302 | 94.61674 | 40939 ft | 498 kts | 127° |
| 2026-05-05 00:58 | 18.61235 | 94.67581 | 40931 ft | 498 kts | 127° |
| 2026-05-05 00:59 | 18.57165 | 94.73491 | 40925 ft | 498 kts | 127° |
| 2026-05-05 00:59 | 18.53196 | 94.79476 | 40929 ft | 498 kts | 126° |
| 2026-05-05 01:00 | 18.49307 | 94.85469 | 40932 ft | 498 kts | 126° |
| 2026-05-05 01:00 | 18.45379 | 94.91488 | 40919 ft | 499 kts | 126° |
| 2026-05-05 01:01 | 18.41433 | 94.97494 | 40924 ft | 499 kts | 126° |
| 2026-05-05 01:01 | 18.37504 | 95.03457 | 40922 ft | 499 kts | 126° |
| 2026-05-05 01:02 | 18.33550 | 95.09453 | 40922 ft | 499 kts | 126° |
| 2026-05-05 01:02 | 18.29591 | 95.15453 | 40913 ft | 499 kts | 126° |
| 2026-05-05 01:03 | 18.25503 | 95.21338 | 40909 ft | 498 kts | 128° |
| 2026-05-05 01:03 | 18.21314 | 95.27148 | 40908 ft | 498 kts | 128° |
| 2026-05-05 01:04 | 18.17165 | 95.32930 | 40908 ft | 498 kts | 128° |
| 2026-05-05 01:04 | 18.10936 | 95.41680 | 40899 ft | 498 kts | 128° |
| 2026-05-05 01:05 | 18.06787 | 95.47517 | 40904 ft | 498 kts | 128° |
| 2026-05-05 01:05 | 18.02665 | 95.53308 | 40905 ft | 498 kts | 128° |
| 2026-05-05 01:06 | 17.98513 | 95.59134 | 40900 ft | 498 kts | 128° |
| 2026-05-05 01:06 | 17.94358 | 95.64961 | 40901 ft | 498 kts | 128° |
| 2026-05-05 01:07 | 17.90204 | 95.70778 | 40904 ft | 498 kts | 128° |
| 2026-05-05 01:07 | 17.86051 | 95.76590 | 40904 ft | 498 kts | 128° |
| 2026-05-05 01:08 | 17.81922 | 95.82364 | 40907 ft | 498 kts | 128° |
| 2026-05-05 01:08 | 17.77765 | 95.88171 | 40907 ft | 498 kts | 128° |
| 2026-05-05 01:09 | 17.73619 | 95.93957 | 40908 ft | 498 kts | 128° |
| 2026-05-05 01:09 | 17.69456 | 95.99762 | 40907 ft | 498 kts | 128° |
| 2026-05-05 01:10 | 17.65323 | 96.05521 | 40909 ft | 498 kts | 128° |
| 2026-05-05 01:10 | 17.61161 | 96.11316 | 40912 ft | 498 kts | 128° |
| 2026-05-05 01:11 | 17.56996 | 96.17109 | 40910 ft | 498 kts | 128° |
| 2026-05-05 01:11 | 17.52826 | 96.22904 | 40908 ft | 498 kts | 128° |
| 2026-05-05 01:12 | 17.48657 | 96.28694 | 40913 ft | 498 kts | 128° |
| 2026-05-05 01:12 | 17.44514 | 96.34442 | 40912 ft | 498 kts | 128° |
| 2026-05-05 01:13 | 17.40338 | 96.40230 | 40912 ft | 498 kts | 128° |
| 2026-05-05 01:13 | 17.36159 | 96.46017 | 40914 ft | 498 kts | 128° |
| 2026-05-05 01:14 | 17.32400 | 96.52035 | 40912 ft | 499 kts | 116° |
| 2026-05-05 01:14 | 17.30193 | 96.58908 | 40911 ft | 499 kts | 105° |
| 2026-05-05 01:15 | 17.28544 | 96.65973 | 40911 ft | 500 kts | 103° |
| 2026-05-05 01:15 | 17.26968 | 96.73063 | 40915 ft | 500 kts | 103° |
| 2026-05-05 01:16 | 17.25375 | 96.80093 | 40915 ft | 500 kts | 104° |
| 2026-05-05 01:16 | 17.23747 | 96.87160 | 40914 ft | 500 kts | 104° |
| 2026-05-05 01:17 | 17.22108 | 96.94225 | 40919 ft | 500 kts | 104° |
| 2026-05-05 01:17 | 17.20468 | 97.01287 | 40919 ft | 499 kts | 104° |
| 2026-05-05 01:18 | 17.18839 | 97.08293 | 40921 ft | 499 kts | 104° |
| 2026-05-05 01:18 | 17.17197 | 97.15346 | 40925 ft | 499 kts | 104° |
| 2026-05-05 01:19 | 17.15555 | 97.22388 | 40924 ft | 499 kts | 104° |
| 2026-05-05 01:19 | 17.13920 | 97.29390 | 40927 ft | 499 kts | 104° |
| 2026-05-05 01:20 | 17.12283 | 97.36387 | 40928 ft | 499 kts | 104° |
| 2026-05-05 01:20 | 17.10633 | 97.43424 | 40926 ft | 499 kts | 104° |
| 2026-05-05 01:21 | 17.08980 | 97.50467 | 40927 ft | 499 kts | 104° |
| 2026-05-05 01:21 | 17.07326 | 97.57503 | 40928 ft | 499 kts | 104° |
| 2026-05-05 01:22 | 17.05679 | 97.64496 | 40927 ft | 499 kts | 104° |
| 2026-05-05 01:22 | 17.04018 | 97.71536 | 40925 ft | 499 kts | 104° |
| 2026-05-05 01:23 | 17.02356 | 97.78572 | 40927 ft | 499 kts | 104° |
| 2026-05-05 01:23 | 17.00701 | 97.85563 | 40930 ft | 499 kts | 104° |
| 2026-05-05 01:24 | 16.98972 | 97.92581 | 40932 ft | 499 kts | 105° |
| 2026-05-05 01:24 | 16.97013 | 97.99530 | 40934 ft | 499 kts | 107° |
| 2026-05-05 01:25 | 16.95026 | 98.06481 | 40936 ft | 499 kts | 106° |
| 2026-05-05 01:25 | 16.93076 | 98.13425 | 40944 ft | 499 kts | 106° |
| 2026-05-05 01:26 | 16.91153 | 98.20340 | 40942 ft | 499 kts | 106° |
| 2026-05-05 01:26 | 16.89223 | 98.27289 | 40948 ft | 499 kts | 106° |
| 2026-05-05 01:27 | 16.87285 | 98.34247 | 40955 ft | 499 kts | 106° |
| 2026-05-05 01:27 | 16.85344 | 98.41202 | 40961 ft | 499 kts | 106° |
| 2026-05-05 01:28 | 16.83491 | 98.48129 | 40963 ft | 499 kts | 101° |
| 2026-05-05 01:28 | 16.82787 | 98.55316 | 40963 ft | 498 kts | 92° |
| 2026-05-05 01:29 | 16.82544 | 98.62539 | 40965 ft | 498 kts | 91° |
| 2026-05-05 01:29 | 16.82365 | 98.69763 | 40966 ft | 498 kts | 91° |
| 2026-05-05 01:30 | 16.82171 | 98.76946 | 40966 ft | 498 kts | 91° |
| 2026-05-05 01:30 | 16.81957 | 98.84170 | 40965 ft | 498 kts | 91° |
| 2026-05-05 01:31 | 16.81735 | 98.91389 | 40967 ft | 498 kts | 91° |
| 2026-05-05 01:31 | 16.81512 | 98.98565 | 40968 ft | 498 kts | 91° |
| 2026-05-05 01:32 | 16.81286 | 99.05781 | 40966 ft | 498 kts | 91° |
| 2026-05-05 01:32 | 16.81058 | 99.13000 | 40968 ft | 497 kts | 91° |
| 2026-05-05 01:33 | 16.80827 | 99.20207 | 40962 ft | 497 kts | 91° |
| 2026-05-05 01:33 | 16.80596 | 99.27372 | 40964 ft | 497 kts | 91° |
| 2026-05-05 01:34 | 16.80360 | 99.34579 | 40960 ft | 497 kts | 91° |
| 2026-05-05 01:34 | 16.80122 | 99.41788 | 40963 ft | 497 kts | 91° |
| 2026-05-05 01:35 | 16.79882 | 99.48997 | 40961 ft | 497 kts | 91° |
| 2026-05-05 01:35 | 16.79640 | 99.56156 | 40961 ft | 497 kts | 91° |
| 2026-05-05 01:36 | 16.79395 | 99.63360 | 40959 ft | 497 kts | 91° |
| 2026-05-05 01:36 | 16.79146 | 99.70573 | 40965 ft | 497 kts | 91° |
| 2026-05-05 01:37 | 16.78896 | 99.77766 | 40964 ft | 498 kts | 91° |
| 2026-05-05 01:37 | 16.78645 | 99.84935 | 40964 ft | 498 kts | 91° |
| 2026-05-05 01:38 | 16.78389 | 99.92159 | 40964 ft | 499 kts | 92° |
| 2026-05-05 01:38 | 16.78130 | 99.99397 | 40967 ft | 499 kts | 92° |
| 2026-05-05 01:39 | 16.77870 | 100.06587 | 40965 ft | 500 kts | 92° |
| 2026-05-05 01:39 | 16.77605 | 100.13841 | 40966 ft | 500 kts | 92° |
| 2026-05-05 01:40 | 16.77337 | 100.21101 | 40966 ft | 501 kts | 92° |
| 2026-05-05 01:40 | 16.77067 | 100.28364 | 40963 ft | 501 kts | 92° |
| 2026-05-05 01:41 | 16.76677 | 100.35586 | 40964 ft | 502 kts | 94° |
| 2026-05-05 01:41 | 16.76066 | 100.42846 | 40967 ft | 503 kts | 95° |
| 2026-05-05 01:42 | 16.75456 | 100.50108 | 40970 ft | 503 kts | 95° |
| 2026-05-05 01:42 | 16.74882 | 100.57394 | 40972 ft | 504 kts | 94° |
| 2026-05-05 01:43 | 16.74325 | 100.64634 | 40981 ft | 504 kts | 94° |
| 2026-05-05 01:43 | 16.73764 | 100.71924 | 40980 ft | 504 kts | 94° |
| 2026-05-05 01:44 | 16.73198 | 100.79221 | 40986 ft | 505 kts | 94° |
| 2026-05-05 01:44 | 16.72628 | 100.86520 | 40982 ft | 505 kts | 94° |
| 2026-05-05 01:45 | 16.72059 | 100.93778 | 40978 ft | 506 kts | 94° |
| 2026-05-05 01:45 | 16.71484 | 101.01089 | 40972 ft | 506 kts | 94° |
| 2026-05-05 01:46 | 16.70905 | 101.08403 | 40968 ft | 506 kts | 94° |
| 2026-05-05 01:46 | 16.70324 | 101.15714 | 40966 ft | 506 kts | 94° |
| 2026-05-05 01:47 | 16.69744 | 101.22978 | 40966 ft | 506 kts | 94° |
| 2026-05-05 01:47 | 16.69157 | 101.30293 | 40968 ft | 506 kts | 94° |
| 2026-05-05 01:48 | 16.68568 | 101.37608 | 40971 ft | 506 kts | 94° |
| 2026-05-05 01:48 | 16.67976 | 101.44924 | 40975 ft | 506 kts | 94° |
| 2026-05-05 01:49 | 16.67385 | 101.52194 | 40986 ft | 506 kts | 94° |
| 2026-05-05 01:49 | 16.66788 | 101.59512 | 40995 ft | 506 kts | 94° |
| 2026-05-05 01:50 | 16.66188 | 101.66829 | 40997 ft | 507 kts | 94° |
| 2026-05-05 01:50 | 16.65589 | 101.74105 | 41002 ft | 507 kts | 94° |
| 2026-05-05 01:51 | 16.64984 | 101.81423 | 41001 ft | 507 kts | 94° |
| 2026-05-05 01:51 | 16.64377 | 101.88737 | 41002 ft | 506 kts | 95° |
| 2026-05-05 01:52 | 16.63683 | 101.96046 | 40999 ft | 506 kts | 99° |
| 2026-05-05 01:52 | 16.61561 | 102.03011 | 40997 ft | 505 kts | 114° |
| 2026-05-05 01:53 | 16.58558 | 102.09584 | 40999 ft | 506 kts | 117° |
| 2026-05-05 01:53 | 16.55404 | 102.16133 | 40992 ft | 506 kts | 117° |
| 2026-05-05 01:54 | 16.52253 | 102.22688 | 40993 ft | 506 kts | 117° |
| 2026-05-05 01:54 | 16.49143 | 102.29210 | 40994 ft | 506 kts | 117° |
| 2026-05-05 01:55 | 16.46021 | 102.35777 | 40987 ft | 505 kts | 117° |
| 2026-05-05 01:55 | 16.42901 | 102.42337 | 40986 ft | 505 kts | 117° |
| 2026-05-05 01:56 | 16.39781 | 102.48888 | 40993 ft | 505 kts | 117° |
| 2026-05-05 01:56 | 16.36675 | 102.55403 | 40991 ft | 505 kts | 117° |
| 2026-05-05 01:57 | 16.33547 | 102.61954 | 40992 ft | 505 kts | 117° |
| 2026-05-05 01:57 | 16.30420 | 102.68499 | 40995 ft | 505 kts | 117° |
| 2026-05-05 01:58 | 16.27292 | 102.75039 | 40993 ft | 505 kts | 117° |
| 2026-05-05 01:58 | 16.24186 | 102.81527 | 40990 ft | 504 kts | 117° |
| 2026-05-05 01:59 | 16.21055 | 102.88062 | 40992 ft | 504 kts | 117° |
| 2026-05-05 01:59 | 16.17923 | 102.94592 | 40988 ft | 504 kts | 117° |
| 2026-05-05 02:00 | 16.14788 | 103.01121 | 40983 ft | 504 kts | 117° |
| 2026-05-05 02:00 | 16.11673 | 103.07605 | 40987 ft | 504 kts | 117° |
| 2026-05-05 02:01 | 16.08535 | 103.14127 | 40986 ft | 504 kts | 117° |
| 2026-05-05 02:01 | 16.05397 | 103.20646 | 40979 ft | 504 kts | 117° |
| 2026-05-05 02:02 | 16.02278 | 103.27118 | 40981 ft | 504 kts | 117° |
| 2026-05-05 02:02 | 15.99136 | 103.33633 | 40980 ft | 504 kts | 117° |
| 2026-05-05 02:03 | 15.95993 | 103.40143 | 40977 ft | 504 kts | 117° |
| 2026-05-05 02:03 | 15.92846 | 103.46654 | 40976 ft | 504 kts | 117° |
| 2026-05-05 02:04 | 15.89723 | 103.53111 | 40970 ft | 504 kts | 117° |
| 2026-05-05 02:04 | 15.86574 | 103.59615 | 40968 ft | 504 kts | 117° |
| 2026-05-05 02:05 | 15.83420 | 103.66124 | 40968 ft | 504 kts | 117° |
| 2026-05-05 02:05 | 15.80799 | 103.71527 | 40966 ft | 504 kts | 117° |
| 2026-05-05 02:06 | 15.77129 | 103.79088 | 40965 ft | 505 kts | 117° |
| 2026-05-05 02:06 | 15.73966 | 103.85597 | 40966 ft | 505 kts | 117° |
| 2026-05-05 02:07 | 15.71334 | 103.91008 | 40966 ft | 505 kts | 117° |
| 2026-05-05 02:07 | 15.67649 | 103.98577 | 40966 ft | 506 kts | 117° |
| 2026-05-05 02:08 | 15.64474 | 104.05093 | 40969 ft | 507 kts | 117° |
| 2026-05-05 02:08 | 15.61292 | 104.11618 | 40966 ft | 507 kts | 117° |
| 2026-05-05 02:09 | 15.58643 | 104.17045 | 40965 ft | 507 kts | 117° |
| 2026-05-05 02:09 | 15.54937 | 104.24629 | 40965 ft | 507 kts | 117° |
| 2026-05-05 02:10 | 15.51748 | 104.31151 | 40967 ft | 507 kts | 117° |
| 2026-05-05 02:10 | 15.49093 | 104.36575 | 40968 ft | 507 kts | 117° |
| 2026-05-05 02:11 | 15.45900 | 104.43093 | 40971 ft | 507 kts | 117° |
| 2026-05-05 02:11 | 15.42189 | 104.50659 | 40967 ft | 507 kts | 117° |
| 2026-05-05 02:12 | 15.37940 | 104.59315 | 40965 ft | 506 kts | 117° |
| 2026-05-05 02:13 | 15.34747 | 104.65814 | 40964 ft | 506 kts | 117° |
| 2026-05-05 02:13 | 15.31037 | 104.73355 | 40966 ft | 505 kts | 117° |
| 2026-05-05 02:14 | 15.27849 | 104.79831 | 40965 ft | 504 kts | 117° |
| 2026-05-05 02:14 | 15.25445 | 104.85324 | 40964 ft | 504 kts | 108° |
| 2026-05-05 02:15 | 15.24078 | 104.93655 | 40966 ft | 503 kts | 94° |
| 2026-05-05 02:15 | 15.23722 | 104.99671 | 40963 ft | 504 kts | 92° |
| 2026-05-05 02:16 | 15.23326 | 105.08091 | 40965 ft | 504 kts | 92° |
| 2026-05-05 02:16 | 15.23027 | 105.14106 | 40964 ft | 504 kts | 92° |
| 2026-05-05 02:17 | 15.22637 | 105.21351 | 40965 ft | 504 kts | 93° |
| 2026-05-05 02:17 | 15.22233 | 105.28585 | 40956 ft | 504 kts | 93° |
| 2026-05-05 02:18 | 15.21830 | 105.35779 | 40953 ft | 504 kts | 93° |
| 2026-05-05 02:18 | 15.21425 | 105.43014 | 40956 ft | 504 kts | 93° |
| 2026-05-05 02:19 | 15.21018 | 105.50251 | 40954 ft | 504 kts | 93° |
| 2026-05-05 02:19 | 15.20542 | 105.58665 | 40959 ft | 504 kts | 93° |
| 2026-05-05 02:20 | 15.20199 | 105.64679 | 40966 ft | 504 kts | 93° |
| 2026-05-05 02:20 | 15.19541 | 105.71891 | 40968 ft | 504 kts | 102° |
| 2026-05-05 02:21 | 15.17180 | 105.78686 | 40968 ft | 503 kts | 116° |
| 2026-05-05 02:21 | 15.13960 | 105.85121 | 40968 ft | 504 kts | 119° |
| 2026-05-05 02:22 | 15.10641 | 105.91453 | 40966 ft | 504 kts | 119° |
| 2026-05-05 02:22 | 15.07311 | 105.97834 | 40965 ft | 504 kts | 118° |
| 2026-05-05 02:23 | 15.04004 | 106.04226 | 40966 ft | 504 kts | 118° |
| 2026-05-05 02:23 | 15.00698 | 106.10633 | 40963 ft | 505 kts | 118° |
| 2026-05-05 02:24 | 14.97415 | 106.16995 | 40965 ft | 505 kts | 118° |
| 2026-05-05 02:24 | 14.94104 | 106.23398 | 40965 ft | 505 kts | 118° |
| 2026-05-05 02:25 | 14.90790 | 106.29803 | 40965 ft | 505 kts | 118° |
| 2026-05-05 02:25 | 14.87497 | 106.36161 | 40964 ft | 505 kts | 118° |
| 2026-05-05 02:26 | 14.84181 | 106.42559 | 40963 ft | 505 kts | 118° |
| 2026-05-05 02:26 | 14.80861 | 106.48958 | 40959 ft | 505 kts | 118° |
| 2026-05-05 02:27 | 14.77536 | 106.55361 | 40955 ft | 505 kts | 118° |
| 2026-05-05 02:27 | 14.74233 | 106.61717 | 40953 ft | 506 kts | 118° |
| 2026-05-05 02:28 | 14.70906 | 106.68117 | 40954 ft | 506 kts | 118° |
| 2026-05-05 02:28 | 14.67572 | 106.74522 | 40958 ft | 506 kts | 118° |
| 2026-05-05 02:29 | 14.64233 | 106.80931 | 40960 ft | 507 kts | 118° |
| 2026-05-05 02:29 | 14.60916 | 106.87293 | 40959 ft | 507 kts | 118° |
| 2026-05-05 02:30 | 14.57573 | 106.93701 | 40961 ft | 506 kts | 118° |
| 2026-05-05 02:30 | 14.54235 | 107.00092 | 40958 ft | 506 kts | 118° |
| 2026-05-05 02:31 | 14.50892 | 107.06489 | 40960 ft | 506 kts | 118° |
| 2026-05-05 02:31 | 14.47577 | 107.12827 | 40958 ft | 505 kts | 118° |
| 2026-05-05 02:32 | 14.44237 | 107.19207 | 40958 ft | 505 kts | 118° |
| 2026-05-05 02:32 | 14.40899 | 107.25578 | 40960 ft | 505 kts | 118° |
| 2026-05-05 02:33 | 14.37558 | 107.31948 | 40960 ft | 504 kts | 119° |
| 2026-05-05 02:33 | 14.34221 | 107.38306 | 40957 ft | 504 kts | 119° |
| 2026-05-05 02:34 | 14.30910 | 107.44621 | 40957 ft | 504 kts | 118° |
| 2026-05-05 02:34 | 14.27591 | 107.50978 | 40957 ft | 504 kts | 118° |
| 2026-05-05 02:35 | 14.24267 | 107.57339 | 40957 ft | 504 kts | 118° |
| 2026-05-05 02:35 | 14.20968 | 107.63642 | 40969 ft | 503 kts | 118° |
| 2026-05-05 02:36 | 14.17641 | 107.69991 | 40960 ft | 503 kts | 118° |
| 2026-05-05 02:36 | 14.14315 | 107.76335 | 40977 ft | 503 kts | 118° |
| 2026-05-05 02:37 | 14.10990 | 107.82672 | 40975 ft | 503 kts | 118° |
| 2026-05-05 02:37 | 14.07686 | 107.88966 | 40967 ft | 503 kts | 118° |
| 2026-05-05 02:38 | 14.04359 | 107.95296 | 40981 ft | 503 kts | 118° |
| 2026-05-05 02:38 | 14.01416 | 108.01815 | 40974 ft | 502 kts | 107° |
| 2026-05-05 02:39 | 14.00265 | 108.08825 | 40972 ft | 501 kts | 94° |
| 2026-05-05 02:39 | 13.99878 | 108.15995 | 40976 ft | 502 kts | 92° |
| 2026-05-05 02:40 | 13.99601 | 108.23177 | 40987 ft | 502 kts | 91° |
| 2026-05-05 02:40 | 13.99300 | 108.30362 | 40984 ft | 503 kts | 92° |
| 2026-05-05 02:41 | 13.98969 | 108.37555 | 40989 ft | 503 kts | 92° |
| 2026-05-05 02:41 | 13.98630 | 108.44699 | 40994 ft | 504 kts | 92° |
| 2026-05-05 02:42 | 13.98285 | 108.51898 | 40987 ft | 503 kts | 92° |
| 2026-05-05 02:42 | 13.97940 | 108.59092 | 40994 ft | 503 kts | 92° |
| 2026-05-05 02:43 | 13.97593 | 108.66286 | 40990 ft | 503 kts | 92° |
| 2026-05-05 02:43 | 13.97247 | 108.73426 | 40989 ft | 503 kts | 92° |
| 2026-05-05 02:44 | 13.96662 | 108.80594 | 40991 ft | 503 kts | 100° |
| 2026-05-05 02:44 | 13.94338 | 108.87342 | 40984 ft | 502 kts | 120° |
| 2026-05-05 02:45 | 13.89942 | 108.92861 | 40987 ft | 500 kts | 141° |
| 2026-05-05 02:45 | 13.87117 | 108.94923 | 40980 ft | 498 kts | 152° |
| 2026-05-05 02:45 | 13.83973 | 108.96372 | 40969 ft | 495 kts | 163° |
| 2026-05-05 02:46 | 13.77328 | 108.97950 | 40991 ft | 494 kts | 169° |
| 2026-05-05 02:46 | 13.70623 | 108.99524 | 40989 ft | 495 kts | 168° |
| 2026-05-05 02:47 | 13.63932 | 109.01189 | 40994 ft | 495 kts | 167° |
| 2026-05-05 02:47 | 13.57250 | 109.02881 | 40986 ft | 494 kts | 167° |
| 2026-05-05 02:48 | 13.50615 | 109.04569 | 40986 ft | 494 kts | 167° |
| 2026-05-05 02:48 | 13.43939 | 109.06269 | 40990 ft | 494 kts | 167° |
| 2026-05-05 02:49 | 13.37259 | 109.07970 | 40844 ft | 494 kts | 167° |
| 2026-05-05 02:49 | 13.33932 | 109.08818 | 40633 ft | 492 kts | 167° |
| 2026-05-05 02:49 | 13.30612 | 109.09663 | 40174 ft | 491 kts | 167° |
| 2026-05-05 02:49 | 13.27290 | 109.10518 | 39443 ft | 494 kts | 166° |
| 2026-05-05 02:50 | 13.24027 | 109.11498 | 38737 ft | 497 kts | 164° |
| 2026-05-05 02:50 | 13.20709 | 109.12551 | 37907 ft | 500 kts | 164° |
| 2026-05-05 02:50 | 13.17379 | 109.13600 | 37141 ft | 501 kts | 164° |
| 2026-05-05 02:50 | 13.14050 | 109.14638 | 36452 ft | 501 kts | 164° |
| 2026-05-05 02:51 | 13.10712 | 109.15672 | 35762 ft | 501 kts | 164° |
| 2026-05-05 02:51 | 13.07370 | 109.16703 | 35038 ft | 502 kts | 164° |
| 2026-05-05 02:51 | 13.04017 | 109.17735 | 34251 ft | 505 kts | 164° |
| 2026-05-05 02:51 | 13.00685 | 109.18759 | 33359 ft | 508 kts | 165° |
| 2026-05-05 02:52 | 12.97290 | 109.19802 | 32480 ft | 510 kts | 164° |
| 2026-05-05 02:52 | 12.93884 | 109.20848 | 31602 ft | 511 kts | 164° |
| 2026-05-05 02:52 | 12.90473 | 109.21894 | 30728 ft | 512 kts | 164° |
| 2026-05-05 02:52 | 12.87054 | 109.22942 | 29789 ft | 513 kts | 164° |
| 2026-05-05 02:53 | 12.83653 | 109.23986 | 28962 ft | 509 kts | 164° |
| 2026-05-05 02:53 | 12.80269 | 109.25024 | 28252 ft | 504 kts | 164° |
| 2026-05-05 02:53 | 12.76932 | 109.26047 | 27568 ft | 499 kts | 164° |
| 2026-05-05 02:53 | 12.73624 | 109.27061 | 26896 ft | 494 kts | 164° |
| 2026-05-05 02:54 | 12.70388 | 109.28053 | 26226 ft | 490 kts | 163° |
| 2026-05-05 02:54 | 12.67120 | 109.28968 | 25539 ft | 485 kts | 168° |
| 2026-05-05 02:54 | 12.63787 | 109.29450 | 24840 ft | 482 kts | 174° |
| 2026-05-05 02:54 | 12.60459 | 109.29771 | 24163 ft | 479 kts | 175° |
| 2026-05-05 02:55 | 12.57151 | 109.30079 | 23491 ft | 475 kts | 175° |
| 2026-05-05 02:55 | 12.53871 | 109.30388 | 22751 ft | 471 kts | 174° |
| 2026-05-05 02:55 | 12.50630 | 109.30698 | 22080 ft | 465 kts | 174° |
| 2026-05-05 02:55 | 12.47431 | 109.31006 | 21424 ft | 460 kts | 174° |
| 2026-05-05 02:56 | 12.44258 | 109.31312 | 20769 ft | 454 kts | 174° |
| 2026-05-05 02:56 | 12.41173 | 109.31611 | 20118 ft | 450 kts | 174° |
| 2026-05-05 02:56 | 12.38071 | 109.31911 | 19461 ft | 446 kts | 174° |
| 2026-05-05 02:56 | 12.34997 | 109.32220 | 18845 ft | 441 kts | 173° |
| 2026-05-05 02:57 | 12.31971 | 109.32733 | 18079 ft | 440 kts | 168° |
| 2026-05-05 02:57 | 12.28980 | 109.33359 | 17325 ft | 437 kts | 167° |
| 2026-05-05 02:57 | 12.26019 | 109.33988 | 16637 ft | 432 kts | 167° |
| 2026-05-05 02:57 | 12.23131 | 109.34597 | 15963 ft | 428 kts | 167° |
| 2026-05-05 02:58 | 12.20233 | 109.35208 | 15266 ft | 424 kts | 167° |
| 2026-05-05 02:58 | 12.17355 | 109.35813 | 14592 ft | 420 kts | 167° |
| 2026-05-05 02:58 | 12.14501 | 109.36412 | 13915 ft | 417 kts | 167° |
| 2026-05-05 02:58 | 12.11672 | 109.37005 | 13173 ft | 413 kts | 167° |
| 2026-05-05 02:59 | 12.08874 | 109.37592 | 12477 ft | 408 kts | 167° |
| 2026-05-05 02:59 | 12.06089 | 109.38103 | 11801 ft | 404 kts | 173° |
| 2026-05-05 02:59 | 12.03342 | 109.37888 | 11606 ft | 391 kts | 192° |
| 2026-05-05 02:59 | 12.00814 | 109.37060 | 11501 ft | 373 kts | 198° |
| 2026-05-05 03:00 | 11.98433 | 109.36171 | 11398 ft | 356 kts | 198° |
| 2026-05-05 03:00 | 11.96188 | 109.35332 | 11256 ft | 341 kts | 198° |
| 2026-05-05 03:00 | 11.94001 | 109.34518 | 11107 ft | 328 kts | 198° |
| 2026-05-05 03:00 | 11.91894 | 109.33738 | 10962 ft | 316 kts | 198° |
| 2026-05-05 03:01 | 11.89856 | 109.32990 | 10708 ft | 310 kts | 197° |
| 2026-05-05 03:01 | 11.87833 | 109.32247 | 10306 ft | 308 kts | 198° |
| 2026-05-05 03:01 | 11.85818 | 109.31504 | 9941 ft | 306 kts | 197° |
| 2026-05-05 03:01 | 11.83820 | 109.30769 | 9565 ft | 304 kts | 197° |
| 2026-05-05 03:02 | 11.81836 | 109.30040 | 9209 ft | 303 kts | 197° |
| 2026-05-05 03:02 | 11.79883 | 109.29322 | 8861 ft | 302 kts | 197° |
| 2026-05-05 03:02 | 11.77969 | 109.28443 | 8495 ft | 302 kts | 209° |
| 2026-05-05 03:02 | 11.76225 | 109.27247 | 8143 ft | 301 kts | 214° |
| 2026-05-05 03:03 | 11.74532 | 109.25997 | 7834 ft | 301 kts | 214° |
| 2026-05-05 03:03 | 11.72838 | 109.24748 | 7479 ft | 299 kts | 214° |
| 2026-05-05 03:03 | 11.71154 | 109.23513 | 7136 ft | 297 kts | 214° |
| 2026-05-05 03:03 | 11.69476 | 109.22278 | 6794 ft | 296 kts | 215° |
| 2026-05-05 03:04 | 11.68023 | 109.20791 | 6432 ft | 298 kts | 236° |
| 2026-05-05 03:04 | 11.67309 | 109.18863 | 6086 ft | 295 kts | 265° |
| 2026-05-05 03:04 | 11.67445 | 109.16807 | 5921 ft | 291 kts | 283° |
| 2026-05-05 03:04 | 11.67952 | 109.14806 | 5901 ft | 291 kts | 294° |
| 2026-05-05 03:05 | 11.69077 | 109.13147 | 5915 ft | 283 kts | 323° |
| 2026-05-05 03:05 | 11.70764 | 109.12261 | 5898 ft | 265 kts | 351° |
| 2026-05-05 03:05 | 11.72526 | 109.12240 | 5762 ft | 246 kts | 17° |
| 2026-05-05 03:05 | 11.74032 | 109.12902 | 5560 ft | 230 kts | 34° |
| 2026-05-05 03:06 | 11.75394 | 109.13672 | 5417 ft | 225 kts | 27° |
| 2026-05-05 03:06 | 11.76836 | 109.14259 | 5091 ft | 228 kts | 21° |
| 2026-05-05 03:06 | 11.78356 | 109.14777 | 4700 ft | 234 kts | 21° |
| 2026-05-05 03:06 | 11.79871 | 109.15298 | 4281 ft | 239 kts | 21° |
| 2026-05-05 03:07 | 11.81460 | 109.15858 | 3879 ft | 245 kts | 20° |
| 2026-05-05 03:07 | 11.83058 | 109.16413 | 3528 ft | 236 kts | 20° |
| 2026-05-05 03:07 | 11.84554 | 109.16925 | 3226 ft | 218 kts | 21° |
| 2026-05-05 03:07 | 11.85940 | 109.17442 | 2953 ft | 206 kts | 22° |
| 2026-05-05 03:08 | 11.87237 | 109.17932 | 2675 ft | 201 kts | 16° |
| 2026-05-05 03:08 | 11.88589 | 109.18313 | 2271 ft | 198 kts | 17° |
| 2026-05-05 03:08 | 11.89842 | 109.18758 | 1990 ft | 184 kts | 20° |
| 2026-05-05 03:08 | 11.91005 | 109.19172 | 1731 ft | 170 kts | 19° |
| 2026-05-05 03:09 | 11.92084 | 109.19539 | 1463 ft | 158 kts | 19° |
| 2026-05-05 03:09 | 11.93085 | 109.19888 | 1236 ft | 146 kts | 19° |
| 2026-05-05 03:09 | 11.94018 | 109.20213 | 1023 ft | 138 kts | 19° |
| 2026-05-05 03:09 | 11.94886 | 109.20514 | 822 ft | 131 kts | 20° |
| 2026-05-05 03:10 | 11.95753 | 109.20817 | 636 ft | 129 kts | 18° |
| 2026-05-05 03:10 | 11.96590 | 109.21108 | 428 ft | 130 kts | 17° |
| 2026-05-05 03:10 | 11.97451 | 109.21406 | 251 ft | 130 kts | 17° |
| 2026-05-05 03:10 | 11.98304 | 109.21704 | 69 ft | 129 kts | 18° |
| 2026-05-05 03:11 | 11.99075 | 109.21972 | 49 ft | 92 kts | 19° |
| 2026-05-05 03:11 | 11.99439 | 109.22100 | 53 ft | 39 kts | 19° |
| 2026-05-05 03:11 | 11.99682 | 109.22185 | 53 ft | 35 kts | 19° |
| 2026-05-05 03:11 | 11.99871 | 109.22248 | 51 ft | 5 kts | 4° |
| 2026-05-05 03:12 | 11.99899 | 109.22237 | 50 ft | 11 kts | 331° |
| 2026-05-05 03:12 | 11.99951 | 109.22134 | 54 ft | 20 kts | 286° |
| 2026-05-05 03:12 | 11.99996 | 109.21991 | 54 ft | 22 kts | 288° |
| 2026-05-05 03:12 | 12.00045 | 109.21841 | 55 ft | 21 kts | 289° |
| 2026-05-05 03:13 | 12.00078 | 109.21801 | 53 ft | 8 kts | 340° |
| 2026-05-05 03:13 | 12.00159 | 109.21821 | 54 ft | 17 kts | 19° |
| 2026-05-05 03:13 | 12.00293 | 109.21867 | 56 ft | 21 kts | 19° |
| 2026-05-05 03:13 | 12.00437 | 109.21916 | 55 ft | 23 kts | 18° |
| 2026-05-05 03:14 | 12.00593 | 109.21970 | 52 ft | 24 kts | 18° |
| 2026-05-05 03:14 | 12.00747 | 109.22024 | 57 ft | 17 kts | 19° |
| 2026-05-05 03:14 | 12.00796 | 109.22014 | 52 ft | 8 kts | 312° |
| 2026-05-05 03:14 | 12.00838 | 109.21905 | 55 ft | 20 kts | 290° |
| 2026-05-05 03:15 | 12.00877 | 109.21840 | 52 ft | 8 kts | 321° |
| 2026-05-05 03:15 | 12.00937 | 109.21840 | 54 ft | 10 kts | 17° |
| 2026-05-05 03:15 | 12.01010 | 109.21868 | 55 ft | 12 kts | 19° |
| 2026-05-05 03:15 | 12.01055 | 109.21858 | 56 ft | 6 kts | 315° |
| 2026-05-05 03:16 | 12.01071 | 109.21818 | 53 ft | 7 kts | 288° |
| 2026-05-05 03:16 | 12.01080 | 109.21794 | 53 ft | 0 kts | 289° |